Observation data for Fort Chadbourne on 10/17/2019      Previous  Date       Current Mesonet Observations  Soil Data  Daily Summary Page  Observations in Plain Language
KCH1 170500Z 00003KT 08/01 A3014 RMK A01 T00760008  RH  062%=      5-min Rain = 0
KCH1 170501Z 01003KT 07/01 A3014 RMK A01 T00740008  RH  063%=      5-min Rain = 0
KCH1 170502Z 01003KT 07/01 A3014 RMK A01 T00710008  RH  064%=      5-min Rain = 0
KCH1 170503Z 01004KT 07/01 A3014 RMK A01 T00680008  RH  066%=      5-min Rain = 0
KCH1 170504Z 02004KT 07/01 A3014 RMK A01 T00650009  RH  068%=      5-min Rain = 0
KCH1 170505Z 02003KT 06/01 A3014 RMK A01 T00610010  RH  070%=      5-min Rain = 0
KCH1 170506Z 02004KT 06/01 A3014 RMK A01 T00580011  RH  071%=      5-min Rain = 0
KCH1 170507Z 01004KT 05/01 A3013 RMK A01 T00540010  RH  073%=      5-min Rain = 0
KCH1 170508Z 01004KT 05/01 A3013 RMK A01 T00530010  RH  074%=      5-min Rain = 0
KCH1 170509Z 01004KT 05/01 A3013 RMK A01 T00530010  RH  074%=      5-min Rain = 0
KCH1 170510Z 01004KT 05/01 A3013 RMK A01 T00520010  RH  074%=      5-min Rain = 0
KCH1 170511Z 01004KT 05/01 A3013 RMK A01 T00530010  RH  074%=      5-min Rain = 0
KCH1 170512Z 01004KT 05/01 A3013 RMK A01 T00530010  RH  073%=      5-min Rain = 0
KCH1 170513Z 36004KT 06/01 A3013 RMK A01 T00550009  RH  072%=      5-min Rain = 0
KCH1 170514Z 35003KT 06/01 A3013 RMK A01 T00570009  RH  071%=      5-min Rain = 0
KCH1 170515Z 35003KT 06/01 A3013 RMK A01 T00590009  RH  070%=      5-min Rain = 0
KCH1 170516Z 33002KT 06/01 A3013 RMK A01 T00610008  RH  068%=      5-min Rain = 0
KCH1 170517Z 34003KT 06/01 A3013 RMK A01 T00640007  RH  067%=      5-min Rain = 0
KCH1 170518Z 35003KT 07/01 A3013 RMK A01 T00670007  RH  066%=      5-min Rain = 0
KCH1 170519Z 35003KT 07/01 A3013 RMK A01 T00690007  RH  065%=      5-min Rain = 0
KCH1 170520Z 35002KT 07/01 A3013 RMK A01 T00690007  RH  065%=      5-min Rain = 0
KCH1 170521Z 33002KT 07/01 A3013 RMK A01 T00690007  RH  065%=      5-min Rain = 0
KCH1 170522Z 33002KT 07/01 A3013 RMK A01 T00700006  RH  064%=      5-min Rain = 0
KCH1 170523Z 34002KT 07/01 A3013 RMK A01 T00720006  RH  063%=      5-min Rain = 0
KCH1 170524Z 33002KT 07/01 A3013 RMK A01 T00720007  RH  063%=      5-min Rain = 0
KCH1 170525Z 32001KT 07/01 A3013 RMK A01 T00730006  RH  063%=      5-min Rain = 0
KCH1 170526Z 32002KT 07/01 A3013 RMK A01 T00730007  RH  063%=      5-min Rain = 0
KCH1 170527Z 31001KT 07/01 A3013 RMK A01 T00720006  RH  063%=      5-min Rain = 0
KCH1 170528Z 32001KT 07/01 A3013 RMK A01 T00730006  RH  062%=      5-min Rain = 0
KCH1 170529Z 32001KT 07/01 A3013 RMK A01 T00730005  RH  062%=      5-min Rain = 0
KCH1 170530Z 30001KT 07/00 A3013 RMK A01 T00730004  RH  062%=      5-min Rain = 0
KCH1 170531Z 30002KT 07/00 A3013 RMK A01 T00740004  RH  061%=      5-min Rain = 0
KCH1 170532Z 29002KT 08/00 A3013 RMK A01 T00760004  RH  060%=      5-min Rain = 0
KCH1 170533Z 28002KT 08/01 A3013 RMK A01 T00780006  RH  060%=      5-min Rain = 0
KCH1 170534Z 27003KT 08/01 A3013 RMK A01 T00780007  RH  061%=      5-min Rain = 0
KCH1 170535Z 27003KT 08/01 A3013 RMK A01 T00770009  RH  062%=      5-min Rain = 0
KCH1 170536Z 27003KT 08/01 A3013 RMK A01 T00770013  RH  064%=      5-min Rain = 0
KCH1 170537Z 28003KT 08/02 A3013 RMK A01 T00770016  RH  065%=      5-min Rain = 0
KCH1 170538Z 29003KT 08/02 A3013 RMK A01 T00780017  RH  065%=      5-min Rain = 0
KCH1 170539Z 29003KT 08/02 A3013 RMK A01 T00790018  RH  066%=      5-min Rain = 0
KCH1 170540Z 30003KT 08/02 A3013 RMK A01 T00780017  RH  065%=      5-min Rain = 0
KCH1 170541Z 29002KT 08/02 A3013 RMK A01 T00790018  RH  065%=      5-min Rain = 0
KCH1 170542Z 29003KT 08/02 A3013 RMK A01 T00780016  RH  065%=      5-min Rain = 0
KCH1 170543Z 28003KT 08/02 A3013 RMK A01 T00770017  RH  066%=      5-min Rain = 0
KCH1 170544Z 29003KT 08/02 A3013 RMK A01 T00760019  RH  067%=      5-min Rain = 0
KCH1 170545Z 30003KT 08/02 A3013 RMK A01 T00760021  RH  068%=      5-min Rain = 0
KCH1 170546Z 30003KT 08/02 A3013 RMK A01 T00770023  RH  068%=      5-min Rain = 0
KCH1 170547Z 29003KT 08/02 A3013 RMK A01 T00780024  RH  069%=      5-min Rain = 0
KCH1 170548Z 29003KT 08/03 A3013 RMK A01 T00780025  RH  069%=      5-min Rain = 0
KCH1 170549Z 28004KT 08/03 A3013 RMK A01 T00780026  RH  070%=      5-min Rain = 0
KCH1 170550Z 28003KT 08/03 A3013 RMK A01 T00780028  RH  071%=      5-min Rain = 0
KCH1 170551Z 29003KT 08/03 A3013 RMK A01 T00780031  RH  072%=      5-min Rain = 0
KCH1 170552Z 29003KT 08/03 A3013 RMK A01 T00790032  RH  073%=      5-min Rain = 0
KCH1 170553Z 29003KT 08/03 A3013 RMK A01 T00790033  RH  073%=      5-min Rain = 0
KCH1 170554Z 29002KT 08/03 A3013 RMK A01 T00790033  RH  073%=      5-min Rain = 0
KCH1 170555Z 29002KT 08/04 A3013 RMK A01 T00780035  RH  074%=      5-min Rain = 0
KCH1 170556Z 28002KT 08/04 A3013 RMK A01 T00780036  RH  075%=      5-min Rain = 0
KCH1 170557Z 28003KT 08/04 A3013 RMK A01 T00770035  RH  074%=      5-min Rain = 0
KCH1 170558Z 28003KT 08/04 A3013 RMK A01 T00760035  RH  075%=      5-min Rain = 0
KCH1 170559Z 28003KT 08/04 A3013 RMK A01 T00760036  RH  076%=      5-min Rain = 0
KCH1 170600Z 28003KT 08/04 A3013 RMK A01 T00750036  RH  076%=      5-min Rain = 0
KCH1 170601Z 28003KT 08/04 A3013 RMK A01 T00750039  RH  078%=      5-min Rain = 0
KCH1 170602Z 28002KT 08/04 A3013 RMK A01 T00750041  RH  079%=      5-min Rain = 0
KCH1 170603Z 27002KT 08/04 A3013 RMK A01 T00750041  RH  079%=      5-min Rain = 0
KCH1 170604Z 27002KT 08/04 A3013 RMK A01 T00760041  RH  079%=      5-min Rain = 0
KCH1 170605Z 27002KT 08/04 A3013 RMK A01 T00750040  RH  078%=      5-min Rain = 0
KCH1 170606Z 27002KT 08/04 A3013 RMK A01 T00750040  RH  078%=      5-min Rain = 0
KCH1 170607Z 27002KT 08/04 A3013 RMK A01 T00750039  RH  078%=      5-min Rain = 0
KCH1 170608Z 27002KT 08/04 A3013 RMK A01 T00750039  RH  078%=      5-min Rain = 0
KCH1 170609Z 27002KT 07/04 A3013 RMK A01 T00740039  RH  078%=      5-min Rain = 0
KCH1 170610Z 28002KT 07/04 A3013 RMK A01 T00740039  RH  078%=      5-min Rain = 0
KCH1 170611Z 29002KT 07/04 A3013 RMK A01 T00730037  RH  078%=      5-min Rain = 0
KCH1 170612Z 29002KT 07/03 A3013 RMK A01 T00720032  RH  076%=      5-min Rain = 0
KCH1 170613Z 29001KT 07/02 A3013 RMK A01 T00690021  RH  071%=      5-min Rain = 0
KCH1 170614Z 30001KT 07/02 A3013 RMK A01 T00650017  RH  071%=      5-min Rain = 0
KCH1 170615Z 30002KT 06/02 A3013 RMK A01 T00630017  RH  073%=      5-min Rain = 0
KCH1 170616Z 30001KT 06/02 A3013 RMK A01 T00600016  RH  073%=      5-min Rain = 0
KCH1 170617Z 30001KT 06/02 A3013 RMK A01 T00590017  RH  074%=      5-min Rain = 0
KCH1 170618Z 31001KT 06/02 A3013 RMK A01 T00580017  RH  075%=      5-min Rain = 0
KCH1 170619Z 31001KT 06/02 A3013 RMK A01 T00570017  RH  075%=      5-min Rain = 0
KCH1 170620Z 33001KT 06/02 A3012 RMK A01 T00560016  RH  075%=      5-min Rain = 0
KCH1 170621Z 33001KT 06/01 A3012 RMK A01 T00560014  RH  074%=      5-min Rain = 0
KCH1 170622Z 35002KT 06/01 A3012 RMK A01 T00560013  RH  074%=      5-min Rain = 0
KCH1 170623Z 35001KT 06/01 A3012 RMK A01 T00560013  RH  074%=      5-min Rain = 0
KCH1 170624Z 36001KT 06/01 A3013 RMK A01 T00560013  RH  074%=      5-min Rain = 0
KCH1 170625Z 00001KT 06/01 A3013 RMK A01 T00560013  RH  074%=      5-min Rain = 0
KCH1 170626Z 00001KT 06/01 A3013 RMK A01 T00570012  RH  073%=      5-min Rain = 0
KCH1 170627Z 00001KT 06/01 A3013 RMK A01 T00580012  RH  072%=      5-min Rain = 0
KCH1 170628Z 02001KT 06/01 A3013 RMK A01 T00590012  RH  072%=      5-min Rain = 0
KCH1 170629Z 03001KT 06/01 A3013 RMK A01 T00590014  RH  073%=      5-min Rain = 0
KCH1 170630Z 04002KT 06/02 A3013 RMK A01 T00580016  RH  075%=      5-min Rain = 0
KCH1 170631Z 04002KT 06/02 A3013 RMK A01 T00560017  RH  076%=      5-min Rain = 0
KCH1 170632Z 05002KT 05/02 A3013 RMK A01 T00540018  RH  078%=      5-min Rain = 0
KCH1 170633Z 06002KT 05/02 A3013 RMK A01 T00510017  RH  078%=      5-min Rain = 0
KCH1 170634Z 06002KT 05/02 A3013 RMK A01 T00490016  RH  079%=      5-min Rain = 0
KCH1 170635Z 06002KT 05/02 A3013 RMK A01 T00480016  RH  080%=      5-min Rain = 0
KCH1 170636Z 06002KT 05/02 A3013 RMK A01 T00480015  RH  079%=      5-min Rain = 0
KCH1 170637Z 05002KT 05/02 A3012 RMK A01 T00480015  RH  079%=      5-min Rain = 0
KCH1 170638Z 05002KT 05/02 A3012 RMK A01 T00480015  RH  079%=      5-min Rain = 0
KCH1 170639Z 04002KT 05/02 A3012 RMK A01 T00490015  RH  079%=      5-min Rain = 0
KCH1 170640Z 03002KT 05/02 A3012 RMK A01 T00490015  RH  078%=      5-min Rain = 0
KCH1 170641Z 03002KT 05/02 A3012 RMK A01 T00490015  RH  078%=      5-min Rain = 0
KCH1 170642Z 03002KT 05/02 A3012 RMK A01 T00500016  RH  079%=      5-min Rain = 0
KCH1 170643Z 03003KT 05/02 A3012 RMK A01 T00500016  RH  078%=      5-min Rain = 0
KCH1 170644Z 02003KT 05/02 A3012 RMK A01 T00510015  RH  078%=      5-min Rain = 0
KCH1 170645Z 02003KT 05/02 A3012 RMK A01 T00510015  RH  078%=      5-min Rain = 0
KCH1 170646Z 02003KT 05/02 A3012 RMK A01 T00520016  RH  077%=      5-min Rain = 0
KCH1 170647Z 01003KT 05/02 A3012 RMK A01 T00530015  RH  077%=      5-min Rain = 0
KCH1 170648Z 01003KT 05/02 A3012 RMK A01 T00540015  RH  076%=      5-min Rain = 0
KCH1 170649Z 01003KT 05/01 A3012 RMK A01 T00540014  RH  075%=      5-min Rain = 0
KCH1 170650Z 01002KT 05/01 A3012 RMK A01 T00540014  RH  075%=      5-min Rain = 0
KCH1 170651Z 01002KT 06/01 A3012 RMK A01 T00550012  RH  074%=      5-min Rain = 0
KCH1 170652Z 01002KT 06/01 A3012 RMK A01 T00560012  RH  073%=      5-min Rain = 0
KCH1 170653Z 00002KT 06/01 A3012 RMK A01 T00560012  RH  073%=      5-min Rain = 0
KCH1 170654Z 00002KT 06/01 A3012 RMK A01 T00560011  RH  073%=      5-min Rain = 0
KCH1 170655Z 00002KT 06/01 A3012 RMK A01 T00570013  RH  073%=      5-min Rain = 0
KCH1 170656Z 00001KT 06/01 A3012 RMK A01 T00560014  RH  074%=      5-min Rain = 0
KCH1 170657Z 00001KT 06/01 A3012 RMK A01 T00550013  RH  074%=      5-min Rain = 0
KCH1 170658Z 00001KT 06/01 A3012 RMK A01 T00560012  RH  074%=      5-min Rain = 0
KCH1 170659Z 00001KT 06/01 A3012 RMK A01 T00550013  RH  074%=      5-min Rain = 0
KCH1 170700Z 00001KT 06/01 A3012 RMK A01 T00550013  RH  074%=      5-min Rain = 0
KCH1 170701Z 01001KT 05/01 A3012 RMK A01 T00540014  RH  075%=      5-min Rain = 0
KCH1 170702Z 02001KT 05/01 A3012 RMK A01 T00530014  RH  076%=      5-min Rain = 0
KCH1 170703Z 03001KT 05/02 A3012 RMK A01 T00520016  RH  077%=      5-min Rain = 0
KCH1 170704Z 03001KT 05/02 A3012 RMK A01 T00510016  RH  078%=      5-min Rain = 0
KCH1 170705Z 03001KT 05/02 A3012 RMK A01 T00500016  RH  079%=      5-min Rain = 0
KCH1 170706Z 03001KT 05/02 A3012 RMK A01 T00500016  RH  079%=      5-min Rain = 0
KCH1 170707Z 03001KT 05/02 A3012 RMK A01 T00490016  RH  079%=      5-min Rain = 0
KCH1 170708Z 03001KT 05/02 A3012 RMK A01 T00490015  RH  079%=      5-min Rain = 0
KCH1 170709Z 03001KT 05/02 A3012 RMK A01 T00490015  RH  079%=      5-min Rain = 0
KCH1 170710Z 04001KT 05/01 A3012 RMK A01 T00500013  RH  077%=      5-min Rain = 0
KCH1 170711Z 05002KT 05/01 A3012 RMK A01 T00520014  RH  077%=      5-min Rain = 0
KCH1 170712Z 05002KT 05/02 A3012 RMK A01 T00520015  RH  077%=      5-min Rain = 0
KCH1 170713Z 05002KT 05/02 A3012 RMK A01 T00530015  RH  077%=      5-min Rain = 0
KCH1 170714Z 05002KT 05/01 A3012 RMK A01 T00530014  RH  076%=      5-min Rain = 0
KCH1 170715Z 04002KT 05/01 A3011 RMK A01 T00540014  RH  076%=      5-min Rain = 0
KCH1 170716Z 04002KT 05/01 A3011 RMK A01 T00540013  RH  075%=      5-min Rain = 0
KCH1 170717Z 05002KT 05/01 A3011 RMK A01 T00540013  RH  074%=      5-min Rain = 0
KCH1 170718Z 05002KT 06/01 A3011 RMK A01 T00550012  RH  074%=      5-min Rain = 0
KCH1 170719Z 05002KT 06/01 A3011 RMK A01 T00560011  RH  073%=      5-min Rain = 0
KCH1 170720Z 06002KT 06/01 A3011 RMK A01 T00570010  RH  072%=      5-min Rain = 0
KCH1 170721Z 06001KT 06/01 A3012 RMK A01 T00580010  RH  071%=      5-min Rain = 0
KCH1 170722Z 07001KT 06/01 A3012 RMK A01 T00590011  RH  072%=      5-min Rain = 0
KCH1 170723Z 07001KT 06/01 A3012 RMK A01 T00590012  RH  072%=      5-min Rain = 0
KCH1 170724Z 07000KT 06/01 A3011 RMK A01 T00590011  RH  071%=      5-min Rain = 0
KCH1 170725Z 00000KT 06/01 A3011 RMK A01 T00590009  RH  070%=      5-min Rain = 0
KCH1 170726Z 00000KT 06/01 A3011 RMK A01 T00590007  RH  069%=      5-min Rain = 0
KCH1 170727Z 00000KT 06/01 A3011 RMK A01 T00590006  RH  069%=      5-min Rain = 0
KCH1 170728Z 00000KT 06/01 A3011 RMK A01 T00590009  RH  070%=      5-min Rain = 0
KCH1 170729Z 00000KT 06/01 A3011 RMK A01 T00590009  RH  071%=      5-min Rain = 0
KCH1 170730Z 00000KT 06/01 A3011 RMK A01 T00590010  RH  071%=      5-min Rain = 0
KCH1 170731Z 00000KT 06/01 A3011 RMK A01 T00590010  RH  071%=      5-min Rain = 0
KCH1 170732Z 00000KT 06/01 A3011 RMK A01 T00590010  RH  071%=      5-min Rain = 0
KCH1 170733Z 00000KT 06/01 A3011 RMK A01 T00590012  RH  072%=      5-min Rain = 0
KCH1 170734Z 00000KT 06/01 A3011 RMK A01 T00590013  RH  072%=      5-min Rain = 0
KCH1 170735Z 29001KT 06/02 A3011 RMK A01 T00580015  RH  074%=      5-min Rain = 0
KCH1 170736Z 29002KT 06/02 A3011 RMK A01 T00570017  RH  076%=      5-min Rain = 0
KCH1 170737Z 29003KT 06/02 A3011 RMK A01 T00560019  RH  077%=      5-min Rain = 0
KCH1 170738Z 28003KT 06/02 A3011 RMK A01 T00550019  RH  078%=      5-min Rain = 0
KCH1 170739Z 28003KT 06/02 A3011 RMK A01 T00550019  RH  078%=      5-min Rain = 0
KCH1 170740Z 28003KT 05/02 A3011 RMK A01 T00540019  RH  078%=      5-min Rain = 0
KCH1 170741Z 28004KT 05/02 A3011 RMK A01 T00540019  RH  078%=      5-min Rain = 0
KCH1 170742Z 28004KT 05/02 A3011 RMK A01 T00540020  RH  079%=      5-min Rain = 0
KCH1 170743Z 28004KT 05/02 A3011 RMK A01 T00540020  RH  079%=      5-min Rain = 0
KCH1 170744Z 28004KT 05/02 A3011 RMK A01 T00540020  RH  079%=      5-min Rain = 0
KCH1 170745Z 28004KT 06/02 A3011 RMK A01 T00550020  RH  078%=      5-min Rain = 0
KCH1 170746Z 28004KT 06/02 A3011 RMK A01 T00550020  RH  078%=      5-min Rain = 0
KCH1 170747Z 28004KT 06/02 A3011 RMK A01 T00550021  RH  079%=      5-min Rain = 0
KCH1 170748Z 28004KT 06/02 A3011 RMK A01 T00560022  RH  079%=      5-min Rain = 0
KCH1 170749Z 28004KT 06/02 A3011 RMK A01 T00570024  RH  079%=      5-min Rain = 0
KCH1 170750Z 28004KT 06/03 A3011 RMK A01 T00580025  RH  079%=      5-min Rain = 0
KCH1 170751Z 28004KT 06/03 A3011 RMK A01 T00590025  RH  079%=      5-min Rain = 0
KCH1 170752Z 29004KT 06/03 A3011 RMK A01 T00590026  RH  079%=      5-min Rain = 0
KCH1 170753Z 29003KT 06/03 A3011 RMK A01 T00610029  RH  080%=      5-min Rain = 0
KCH1 170754Z 29004KT 06/03 A3011 RMK A01 T00630030  RH  079%=      5-min Rain = 0
KCH1 170755Z 30004KT 06/03 A3011 RMK A01 T00630029  RH  079%=      5-min Rain = 0
KCH1 170756Z 30004KT 06/03 A3011 RMK A01 T00630031  RH  080%=      5-min Rain = 0
KCH1 170757Z 30004KT 06/03 A3011 RMK A01 T00640031  RH  080%=      5-min Rain = 0
KCH1 170758Z 31004KT 06/03 A3011 RMK A01 T00630029  RH  079%=      5-min Rain = 0
KCH1 170759Z 31004KT 06/03 A3011 RMK A01 T00620031  RH  080%=      5-min Rain = 0
KCH1 170800Z 31004KT 06/03 A3011 RMK A01 T00630033  RH  081%=      5-min Rain = 0
KCH1 170801Z 31004KT 07/04 A3011 RMK A01 T00650038  RH  083%=      5-min Rain = 0
KCH1 170802Z 31004KT 07/04 A3011 RMK A01 T00670043  RH  085%=      5-min Rain = 0
KCH1 170803Z 32004KT 07/04 A3011 RMK A01 T00680043  RH  084%=      5-min Rain = 0
KCH1 170804Z 32003KT 07/04 A3011 RMK A01 T00680039  RH  082%=      5-min Rain = 0
KCH1 170805Z 33003KT 07/03 A3011 RMK A01 T00650032  RH  079%=      5-min Rain = 0
KCH1 170806Z 33003KT 06/03 A3011 RMK A01 T00610026  RH  079%=      5-min Rain = 0
KCH1 170807Z 33003KT 06/03 A3011 RMK A01 T00570025  RH  079%=      5-min Rain = 0
KCH1 170808Z 34002KT 06/02 A3011 RMK A01 T00550022  RH  079%=      5-min Rain = 0
KCH1 170809Z 34003KT 05/03 A3011 RMK A01 T00540028  RH  083%=      5-min Rain = 0
KCH1 170810Z 34002KT 05/03 A3011 RMK A01 T00540027  RH  082%=      5-min Rain = 0
KCH1 170811Z 34003KT 05/02 A3011 RMK A01 T00510021  RH  081%=      5-min Rain = 0
KCH1 170812Z 33003KT 05/03 A3011 RMK A01 T00500026  RH  084%=      5-min Rain = 0
KCH1 170813Z 33003KT 05/03 A3011 RMK A01 T00520031  RH  087%=      5-min Rain = 0
KCH1 170814Z 33003KT 05/03 A3011 RMK A01 T00540034  RH  087%=      5-min Rain = 0
KCH1 170815Z 33003KT 05/03 A3011 RMK A01 T00540034  RH  087%=      5-min Rain = 0
KCH1 170816Z 33003KT 06/03 A3011 RMK A01 T00550033  RH  086%=      5-min Rain = 0
KCH1 170817Z 33003KT 06/03 A3011 RMK A01 T00550032  RH  085%=      5-min Rain = 0
KCH1 170818Z 34003KT 06/03 A3011 RMK A01 T00550031  RH  085%=      5-min Rain = 0
KCH1 170819Z 34004KT 06/03 A3011 RMK A01 T00550029  RH  083%=      5-min Rain = 0
KCH1 170820Z 34003KT 05/03 A3011 RMK A01 T00540027  RH  083%=      5-min Rain = 0
KCH1 170821Z 34003KT 05/03 A301 RMK A01 T00530025  RH  082%=      5-min Rain = 0
KCH1 170822Z 35003KT 05/03 A301 RMK A01 T00510025  RH  083%=      5-min Rain = 0
KCH1 170823Z 36003KT 05/03 A301 RMK A01 T00510026  RH  084%=      5-min Rain = 0
KCH1 170824Z 35003KT 05/02 A301 RMK A01 T00500024  RH  083%=      5-min Rain = 0
KCH1 170825Z 35003KT 05/02 A301 RMK A01 T00480022  RH  083%=      5-min Rain = 0
KCH1 170826Z 35003KT 05/02 A301 RMK A01 T00470021  RH  083%=      5-min Rain = 0
KCH1 170827Z 35003KT 05/02 A301 RMK A01 T00460020  RH  084%=      5-min Rain = 0
KCH1 170828Z 34002KT 05/02 A301 RMK A01 T00450020  RH  084%=      5-min Rain = 0
KCH1 170829Z 34002KT 05/02 A301 RMK A01 T00450021  RH  084%=      5-min Rain = 0
KCH1 170830Z 34002KT 05/02 A301 RMK A01 T00450021  RH  085%=      5-min Rain = 0
KCH1 170831Z 35002KT 05/02 A301 RMK A01 T00450021  RH  085%=      5-min Rain = 0
KCH1 170832Z 01001KT 05/02 A301 RMK A01 T00450021  RH  084%=      5-min Rain = 0
KCH1 170833Z 00002KT 05/02 A301 RMK A01 T00450020  RH  084%=      5-min Rain = 0
KCH1 170834Z 36003KT 05/02 A301 RMK A01 T00450020  RH  084%=      5-min Rain = 0
KCH1 170835Z 35003KT 05/02 A301 RMK A01 T00450020  RH  083%=      5-min Rain = 0
KCH1 170836Z 35003KT 05/02 A301 RMK A01 T00450019  RH  083%=      5-min Rain = 0
KCH1 170837Z 36002KT 05/02 A301 RMK A01 T00450019  RH  083%=      5-min Rain = 0
KCH1 170838Z 01002KT 04/02 A301 RMK A01 T00440018  RH  083%=      5-min Rain = 0
KCH1 170839Z 35002KT 04/02 A301 RMK A01 T00440018  RH  084%=      5-min Rain = 0
KCH1 170840Z 35002KT 04/02 A301 RMK A01 T00430018  RH  084%=      5-min Rain = 0
KCH1 170841Z 35002KT 04/02 A301 RMK A01 T00430018  RH  084%=      5-min Rain = 0
KCH1 170842Z 33002KT 04/02 A301 RMK A01 T00430018  RH  084%=      5-min Rain = 0
KCH1 170843Z 33002KT 04/02 A301 RMK A01 T00430018  RH  084%=      5-min Rain = 0
KCH1 170844Z 33001KT 04/02 A301 RMK A01 T00420017  RH  084%=      5-min Rain = 0
KCH1 170845Z 32002KT 04/02 A301 RMK A01 T00420017  RH  084%=      5-min Rain = 0
KCH1 170846Z 31001KT 04/02 A301 RMK A01 T00410017  RH  084%=      5-min Rain = 0
KCH1 170847Z 30001KT 04/02 A301 RMK A01 T00420017  RH  084%=      5-min Rain = 0
KCH1 170848Z 29002KT 04/02 A3009 RMK A01 T00410017  RH  084%=      5-min Rain = 0
KCH1 170849Z 29003KT 04/02 A3009 RMK A01 T00410017  RH  084%=      5-min Rain = 0
KCH1 170850Z 29003KT 04/02 A3009 RMK A01 T00420018  RH  084%=      5-min Rain = 0
KCH1 170851Z 29003KT 04/02 A3009 RMK A01 T00430018  RH  084%=      5-min Rain = 0
KCH1 170852Z 29003KT 04/02 A3009 RMK A01 T00440019  RH  084%=      5-min Rain = 0
KCH1 170853Z 29003KT 04/02 A3009 RMK A01 T00440019  RH  083%=      5-min Rain = 0
KCH1 170854Z 28003KT 05/02 A301 RMK A01 T00450019  RH  083%=      5-min Rain = 0
KCH1 170855Z 28003KT 05/02 A301 RMK A01 T00460019  RH  083%=      5-min Rain = 0
KCH1 170856Z 27003KT 05/02 A301 RMK A01 T00460020  RH  083%=      5-min Rain = 0
KCH1 170857Z 25004KT 05/02 A301 RMK A01 T00470020  RH  083%=      5-min Rain = 0
KCH1 170858Z 25004KT 05/02 A301 RMK A01 T00470020  RH  083%=      5-min Rain = 0
KCH1 170859Z 25004KT 05/02 A301 RMK A01 T00470021  RH  083%=      5-min Rain = 0
KCH1 170900Z 25004KT 05/02 A301 RMK A01 T00480023  RH  084%=      5-min Rain = 0
KCH1 170901Z 25004KT 05/02 A301 RMK A01 T00490023  RH  083%=      5-min Rain = 0
KCH1 170902Z 25004KT 05/02 A301 RMK A01 T00500024  RH  083%=      5-min Rain = 0
KCH1 170903Z 26004KT 05/02 A301 RMK A01 T00510024  RH  083%=      5-min Rain = 0
KCH1 170904Z 26003KT 05/02 A301 RMK A01 T00520024  RH  082%=      5-min Rain = 0
KCH1 170905Z 27003KT 05/02 A301 RMK A01 T00520023  RH  082%=      5-min Rain = 0
KCH1 170906Z 27002KT 05/02 A301 RMK A01 T00520024  RH  082%=      5-min Rain = 0
KCH1 170907Z 27002KT 05/02 A301 RMK A01 T00510024  RH  082%=      5-min Rain = 0
KCH1 170908Z 27002KT 05/02 A301 RMK A01 T00510024  RH  083%=      5-min Rain = 0
KCH1 170909Z 27003KT 05/02 A301 RMK A01 T00500023  RH  083%=      5-min Rain = 0
KCH1 170910Z 27003KT 05/02 A301 RMK A01 T00500024  RH  083%=      5-min Rain = 0
KCH1 170911Z 27003KT 05/03 A301 RMK A01 T00500025  RH  084%=      5-min Rain = 0
KCH1 170912Z 27002KT 05/03 A301 RMK A01 T00520026  RH  084%=      5-min Rain = 0
KCH1 170913Z 27003KT 05/03 A301 RMK A01 T00530030  RH  085%=      5-min Rain = 0
KCH1 170914Z 28003KT 06/03 A301 RMK A01 T00550033  RH  086%=      5-min Rain = 0
KCH1 170915Z 27003KT 06/04 A301 RMK A01 T00560035  RH  086%=      5-min Rain = 0
KCH1 170916Z 27003KT 06/04 A301 RMK A01 T00580037  RH  086%=      5-min Rain = 0
KCH1 170917Z 28003KT 06/04 A301 RMK A01 T00580036  RH  086%=      5-min Rain = 0
KCH1 170918Z 28003KT 06/04 A301 RMK A01 T00580036  RH  086%=      5-min Rain = 0
KCH1 170919Z 28002KT 06/04 A301 RMK A01 T00580035  RH  085%=      5-min Rain = 0
KCH1 170920Z 29002KT 06/03 A301 RMK A01 T00570034  RH  085%=      5-min Rain = 0
KCH1 170921Z 29002KT 06/03 A301 RMK A01 T00570033  RH  085%=      5-min Rain = 0
KCH1 170922Z 29002KT 06/03 A301 RMK A01 T00560030  RH  083%=      5-min Rain = 0
KCH1 170923Z 29002KT 05/03 A301 RMK A01 T00540026  RH  082%=      5-min Rain = 0
KCH1 170924Z 30003KT 05/02 A301 RMK A01 T00520024  RH  082%=      5-min Rain = 0
KCH1 170925Z 30003KT 05/02 A301 RMK A01 T00500020  RH  081%=      5-min Rain = 0
KCH1 170926Z 31002KT 05/02 A3009 RMK A01 T00470018  RH  082%=      5-min Rain = 0
KCH1 170927Z 32002KT 05/02 A3009 RMK A01 T00460018  RH  082%=      5-min Rain = 0
KCH1 170928Z 33003KT 05/02 A3009 RMK A01 T00450018  RH  083%=      5-min Rain = 0
KCH1 170929Z 33002KT 05/02 A3009 RMK A01 T00450019  RH  083%=      5-min Rain = 0
KCH1 170930Z 34002KT 04/02 A3009 RMK A01 T00440018  RH  083%=      5-min Rain = 0
KCH1 170931Z 33003KT 04/02 A3009 RMK A01 T00430018  RH  083%=      5-min Rain = 0
KCH1 170932Z 33003KT 04/02 A3009 RMK A01 T00420017  RH  084%=      5-min Rain = 0
KCH1 170933Z 33003KT 04/02 A3009 RMK A01 T00420018  RH  085%=      5-min Rain = 0
KCH1 170934Z 32004KT 04/02 A3009 RMK A01 T00420021  RH  086%=      5-min Rain = 0
KCH1 170935Z 32003KT 04/02 A3009 RMK A01 T00430023  RH  087%=      5-min Rain = 0
KCH1 170936Z 32002KT 04/02 A3009 RMK A01 T00430023  RH  086%=      5-min Rain = 0
KCH1 170937Z 32002KT 04/02 A3009 RMK A01 T00420019  RH  085%=      5-min Rain = 0
KCH1 170938Z 30001KT 04/02 A3009 RMK A01 T00400019  RH  086%=      5-min Rain = 0
KCH1 170939Z 30000KT 04/02 A3009 RMK A01 T00400022  RH  088%=      5-min Rain = 0
KCH1 170940Z 31000KT 04/02 A3009 RMK A01 T00400021  RH  087%=      5-min Rain = 0
KCH1 170941Z 33001KT 04/02 A3009 RMK A01 T00410021  RH  087%=      5-min Rain = 0
KCH1 170942Z 33002KT 04/02 A3009 RMK A01 T00410022  RH  087%=      5-min Rain = 0
KCH1 170943Z 33002KT 04/02 A3009 RMK A01 T00410024  RH  088%=      5-min Rain = 0
KCH1 170944Z 34002KT 04/03 A3009 RMK A01 T00430028  RH  090%=      5-min Rain = 0
KCH1 170945Z 34001KT 04/03 A3009 RMK A01 T00440027  RH  089%=      5-min Rain = 0
KCH1 170946Z 34001KT 04/02 A3009 RMK A01 T00430022  RH  086%=      5-min Rain = 0
KCH1 170947Z 34001KT 04/02 A3009 RMK A01 T00430022  RH  086%=      5-min Rain = 0
KCH1 170948Z 34001KT 04/02 A3009 RMK A01 T00420022  RH  086%=      5-min Rain = 0
KCH1 170949Z 33001KT 04/02 A3009 RMK A01 T00420019  RH  085%=      5-min Rain = 0
KCH1 170950Z 33001KT 04/02 A3009 RMK A01 T00400017  RH  085%=      5-min Rain = 0
KCH1 170951Z 31001KT 04/02 A3009 RMK A01 T00390016  RH  085%=      5-min Rain = 0
KCH1 170952Z 32001KT 04/02 A3009 RMK A01 T00390018  RH  086%=      5-min Rain = 0
KCH1 170953Z 32001KT 04/02 A3009 RMK A01 T00390022  RH  088%=      5-min Rain = 0
KCH1 170954Z 32001KT 04/03 A3009 RMK A01 T00410026  RH  090%=      5-min Rain = 0
KCH1 170955Z 33001KT 04/03 A3009 RMK A01 T00420029  RH  091%=      5-min Rain = 0
KCH1 170956Z 33001KT 04/03 A3008 RMK A01 T00440029  RH  091%=      5-min Rain = 0
KCH1 170957Z 35001KT 04/03 A3008 RMK A01 T00430025  RH  088%=      5-min Rain = 0
KCH1 170958Z 35001KT 04/02 A3008 RMK A01 T00410021  RH  087%=      5-min Rain = 0
KCH1 170959Z 00002KT 04/02 A3008 RMK A01 T00390019  RH  087%=      5-min Rain = 0
KCH1 171000Z 00002KT 04/02 A3008 RMK A01 T00390019  RH  087%=      5-min Rain = 0
KCH1 171001Z 00002KT 04/02 A3008 RMK A01 T00390017  RH  086%=      5-min Rain = 0
KCH1 171002Z 36002KT 04/02 A3008 RMK A01 T00390016  RH  085%=      5-min Rain = 0
KCH1 171003Z 00002KT 04/02 A3008 RMK A01 T00390015  RH  084%=      5-min Rain = 0
KCH1 171004Z 00002KT 04/02 A3008 RMK A01 T00390015  RH  084%=      5-min Rain = 0
KCH1 171005Z 01002KT 04/01 A3008 RMK A01 T00390014  RH  084%=      5-min Rain = 0
KCH1 171006Z 00003KT 04/01 A3008 RMK A01 T00380014  RH  084%=      5-min Rain = 0
KCH1 171007Z 36003KT 04/01 A3008 RMK A01 T00380013  RH  084%=      5-min Rain = 0
KCH1 171008Z 00003KT 04/01 A3008 RMK A01 T00370013  RH  084%=      5-min Rain = 0
KCH1 171009Z 35003KT 04/01 A3008 RMK A01 T00370013  RH  084%=      5-min Rain = 0
KCH1 171010Z 35003KT 04/01 A3008 RMK A01 T00370013  RH  084%=      5-min Rain = 0
KCH1 171011Z 35003KT 04/01 A3008 RMK A01 T00360013  RH  085%=      5-min Rain = 0
KCH1 171012Z 34002KT 04/01 A3008 RMK A01 T00370014  RH  085%=      5-min Rain = 0
KCH1 171013Z 34002KT 04/01 A3008 RMK A01 T00370014  RH  085%=      5-min Rain = 0
KCH1 171014Z 34002KT 04/02 A3008 RMK A01 T00380015  RH  085%=      5-min Rain = 0
KCH1 171015Z 34002KT 04/02 A3008 RMK A01 T00380015  RH  085%=      5-min Rain = 0
KCH1 171016Z 33003KT 04/02 A3008 RMK A01 T00390016  RH  085%=      5-min Rain = 0
KCH1 171017Z 32003KT 04/02 A3008 RMK A01 T00400016  RH  085%=      5-min Rain = 0
KCH1 171018Z 32004KT 04/02 A3008 RMK A01 T00400017  RH  085%=      5-min Rain = 0
KCH1 171019Z 32004KT 04/02 A3008 RMK A01 T00400017  RH  085%=      5-min Rain = 0
KCH1 171020Z 31004KT 04/02 A3008 RMK A01 T00410019  RH  086%=      5-min Rain = 0
KCH1 171021Z 32004KT 04/02 A3008 RMK A01 T00430024  RH  088%=      5-min Rain = 0
KCH1 171022Z 32003KT 05/03 A3008 RMK A01 T00450026  RH  087%=      5-min Rain = 0
KCH1 171023Z 32004KT 05/03 A3008 RMK A01 T00470025  RH  086%=      5-min Rain = 0
KCH1 171024Z 33004KT 05/02 A3008 RMK A01 T00470022  RH  084%=      5-min Rain = 0
KCH1 171025Z 33004KT 05/02 A3008 RMK A01 T00480020  RH  083%=      5-min Rain = 0
KCH1 171026Z 33005KT 05/02 A3008 RMK A01 T00470018  RH  081%=      5-min Rain = 0
KCH1 171027Z 33005KT 05/02 A3008 RMK A01 T00470016  RH  080%=      5-min Rain = 0
KCH1 171028Z 33005KT 05/02 A3008 RMK A01 T00480015  RH  079%=      5-min Rain = 0
KCH1 171029Z 32005KT 05/02 A3008 RMK A01 T00480015  RH  079%=      5-min Rain = 0
KCH1 171030Z 32004KT 05/02 A3008 RMK A01 T00490016  RH  079%=      5-min Rain = 0
KCH1 171031Z 32004KT 05/02 A3008 RMK A01 T00500016  RH  079%=      5-min Rain = 0
KCH1 171032Z 32004KT 05/02 A3008 RMK A01 T00510017  RH  079%=      5-min Rain = 0
KCH1 171033Z 32004KT 05/02 A3008 RMK A01 T00520018  RH  079%=      5-min Rain = 0
KCH1 171034Z 31003KT 05/02 A3008 RMK A01 T00510017  RH  079%=      5-min Rain = 0
KCH1 171035Z 31003KT 05/02 A3009 RMK A01 T00520018  RH  079%=      5-min Rain = 0
KCH1 171036Z 31002KT 05/02 A3009 RMK A01 T00520019  RH  079%=      5-min Rain = 0
KCH1 171037Z 30002KT 05/02 A3009 RMK A01 T00520019  RH  080%=      5-min Rain = 0
KCH1 171038Z 30003KT 05/02 A3009 RMK A01 T00520020  RH  080%=      5-min Rain = 0
KCH1 171039Z 31002KT 05/02 A3009 RMK A01 T00530020  RH  080%=      5-min Rain = 0
KCH1 171040Z 32002KT 05/02 A3009 RMK A01 T00530019  RH  079%=      5-min Rain = 0
KCH1 171041Z 32003KT 05/01 A3009 RMK A01 T00490012  RH  077%=      5-min Rain = 0
KCH1 171042Z 32003KT 04/01 A3009 RMK A01 T00430007  RH  078%=      5-min Rain = 0
KCH1 171043Z 32003KT 04/01 A3009 RMK A01 T00390008  RH  080%=      5-min Rain = 0
KCH1 171044Z 31003KT 04/01 A3009 RMK A01 T00380010  RH  082%=      5-min Rain = 0
KCH1 171045Z 32003KT 04/01 A3009 RMK A01 T00390011  RH  082%=      5-min Rain = 0
KCH1 171046Z 32003KT 04/01 A3009 RMK A01 T00410014  RH  082%=      5-min Rain = 0
KCH1 171047Z 32003KT 04/01 A3008 RMK A01 T00430014  RH  081%=      5-min Rain = 0
KCH1 171048Z 32003KT 04/01 A3008 RMK A01 T00430012  RH  080%=      5-min Rain = 0
KCH1 171049Z 32003KT 04/01 A3008 RMK A01 T00410009  RH  080%=      5-min Rain = 0
KCH1 171050Z 33003KT 04/01 A3008 RMK A01 T00390009  RH  081%=      5-min Rain = 0
KCH1 171051Z 33003KT 04/01 A3008 RMK A01 T00390009  RH  081%=      5-min Rain = 0
KCH1 171052Z 34003KT 04/01 A3008 RMK A01 T00390009  RH  081%=      5-min Rain = 0
KCH1 171053Z 34004KT 04/01 A3008 RMK A01 T00390009  RH  081%=      5-min Rain = 0
KCH1 171054Z 34004KT 04/01 A3008 RMK A01 T00370008  RH  081%=      5-min Rain = 0
KCH1 171055Z 35004KT 04/01 A3008 RMK A01 T00350007  RH  082%=      5-min Rain = 0
KCH1 171056Z 35004KT 03/01 A3008 RMK A01 T00340007  RH  083%=      5-min Rain = 0
KCH1 171057Z 35004KT 03/01 A3008 RMK A01 T00330007  RH  083%=      5-min Rain = 0
KCH1 171058Z 35003KT 03/01 A3008 RMK A01 T00320008  RH  084%=      5-min Rain = 0
KCH1 171059Z 35003KT 03/01 A3008 RMK A01 T00320008  RH  084%=      5-min Rain = 0
KCH1 171100Z 00003KT 03/01 A3008 RMK A01 T00310007  RH  084%=      5-min Rain = 0
KCH1 171101Z 00003KT 03/01 A3008 RMK A01 T00310007  RH  084%=      5-min Rain = 0
KCH1 171102Z 00002KT 03/01 A3008 RMK A01 T00300006  RH  084%=      5-min Rain = 0
KCH1 171103Z 00002KT 03/01 A3008 RMK A01 T00300006  RH  084%=      5-min Rain = 0
KCH1 171104Z 00002KT 03/01 A3008 RMK A01 T00310006  RH  084%=      5-min Rain = 0
KCH1 171105Z 00001KT 03/01 A3008 RMK A01 T00310005  RH  083%=      5-min Rain = 0
KCH1 171106Z 00001KT 03/01 A3008 RMK A01 T00310005  RH  083%=      5-min Rain = 0
KCH1 171107Z 00001KT 03/00 A3008 RMK A01 T00310004  RH  083%=      5-min Rain = 0
KCH1 171108Z 00001KT 03/00 A3008 RMK A01 T00310004  RH  083%=      5-min Rain = 0
KCH1 171109Z 00001KT 03/00 A3008 RMK A01 T00310004  RH  083%=      5-min Rain = 0
KCH1 171110Z 35001KT 03/00 A3008 RMK A01 T00310004  RH  083%=      5-min Rain = 0
KCH1 171111Z 35001KT 03/00 A3008 RMK A01 T00320004  RH  082%=      5-min Rain = 0
KCH1 171112Z 35001KT 03/00 A3008 RMK A01 T00320004  RH  082%=      5-min Rain = 0
KCH1 171113Z 35000KT 03/00 A3008 RMK A01 T00330004  RH  081%=      5-min Rain = 0
KCH1 171114Z 00000KT 03/00 A3008 RMK A01 T00340004  RH  081%=      5-min Rain = 0
KCH1 171115Z 00000KT 03/00 A3008 RMK A01 T00340004  RH  081%=      5-min Rain = 0
KCH1 171116Z 00000KT 03/00 A3008 RMK A01 T00330004  RH  081%=      5-min Rain = 0
KCH1 171117Z 00000KT 03/00 A3008 RMK A01 T00340004  RH  081%=      5-min Rain = 0
KCH1 171118Z 00000KT 03/00 A3008 RMK A01 T00340004  RH  081%=      5-min Rain = 0
KCH1 171119Z 00000KT 04/00 A3008 RMK A01 T00350004  RH  080%=      5-min Rain = 0
KCH1 171120Z 00000KT 04/01 A3008 RMK A01 T00350005  RH  081%=      5-min Rain = 0
KCH1 171121Z 00000KT 04/01 A3008 RMK A01 T00350005  RH  081%=      5-min Rain = 0
KCH1 171122Z 00000KT 04/01 A3008 RMK A01 T00360006  RH  081%=      5-min Rain = 0
KCH1 171123Z 00000KT 04/01 A3008 RMK A01 T00360006  RH  080%=      5-min Rain = 0
KCH1 171124Z 00000KT 04/01 A3008 RMK A01 T00360005  RH  080%=      5-min Rain = 0
KCH1 171125Z 00000KT 04/01 A3008 RMK A01 T00370005  RH  080%=      5-min Rain = 0
KCH1 171126Z 00000KT 04/01 A3008 RMK A01 T00370006  RH  080%=      5-min Rain = 0
KCH1 171127Z 00000KT 04/01 A3008 RMK A01 T00380006  RH  079%=      5-min Rain = 0
KCH1 171128Z 13001KT 04/01 A3008 RMK A01 T00390005  RH  079%=      5-min Rain = 0
KCH1 171129Z 13001KT 04/01 A3008 RMK A01 T00390005  RH  078%=      5-min Rain = 0
KCH1 171130Z 13001KT 04/01 A3008 RMK A01 T00400005  RH  078%=      5-min Rain = 0
KCH1 171131Z 13001KT 04/01 A3008 RMK A01 T00400005  RH  078%=      5-min Rain = 0
KCH1 171132Z 13000KT 04/01 A3008 RMK A01 T00400005  RH  078%=      5-min Rain = 0
KCH1 171133Z 13001KT 04/01 A3008 RMK A01 T00410005  RH  078%=      5-min Rain = 0
KCH1 171134Z 13001KT 04/01 A3008 RMK A01 T00410005  RH  078%=      5-min Rain = 0
KCH1 171135Z 14001KT 04/01 A3008 RMK A01 T00410006  RH  078%=      5-min Rain = 0
KCH1 171136Z 14002KT 04/01 A3008 RMK A01 T00410006  RH  077%=      5-min Rain = 0
KCH1 171137Z 14002KT 04/01 A3008 RMK A01 T00410005  RH  078%=      5-min Rain = 0
KCH1 171138Z 14002KT 04/00 A3008 RMK A01 T00380004  RH  078%=      5-min Rain = 0
KCH1 171139Z 13002KT 03/00 A3008 RMK A01 T00340002  RH  080%=      5-min Rain = 0
KCH1 171140Z 13001KT 03/00 A3008 RMK A01 T00300002  RH  081%=      5-min Rain = 0
KCH1 171141Z 12001KT 03/00 A3008 RMK A01 T00290003  RH  083%=      5-min Rain = 0
KCH1 171142Z 11001KT 03/00 A3008 RMK A01 T00280003  RH  084%=      5-min Rain = 0
KCH1 171143Z 11001KT 03/00 A3008 RMK A01 T00260002  RH  084%=      5-min Rain = 0
KCH1 171144Z 11000KT 03/00 A3008 RMK A01 T00250002  RH  085%=      5-min Rain = 0
KCH1 171145Z 00000KT 02/00 A3008 RMK A01 T00240002  RH  086%=      5-min Rain = 0
KCH1 171146Z 00000KT 02/00 A3008 RMK A01 T00230002  RH  086%=      5-min Rain = 0
KCH1 171147Z 02000KT 02/00 A3008 RMK A01 T00230003  RH  087%=      5-min Rain = 0
KCH1 171148Z 02002KT 02/00 A3008 RMK A01 T00230004  RH  087%=      5-min Rain = 0
KCH1 171149Z 02003KT 02/00 A3008 RMK A01 T00230004  RH  088%=      5-min Rain = 0
KCH1 171150Z 02003KT 02/01 A3008 RMK A01 T00240005  RH  088%=      5-min Rain = 0
KCH1 171151Z 02004KT 02/01 A3008 RMK A01 T00240005  RH  087%=      5-min Rain = 0
KCH1 171152Z 02004KT 03/01 A3008 RMK A01 T00250005  RH  087%=      5-min Rain = 0
KCH1 171153Z 01005KT 03/01 A3008 RMK A01 T00260005  RH  086%=      5-min Rain = 0
KCH1 171154Z 01005KT 03/01 A3008 RMK A01 T00270005  RH  086%=      5-min Rain = 0
KCH1 171155Z 01005KT 03/01 A3008 RMK A01 T00270005  RH  085%=      5-min Rain = 0
KCH1 171156Z 01004KT 03/01 A3008 RMK A01 T00280005  RH  085%=      5-min Rain = 0
KCH1 171157Z 36004KT 03/01 A3008 RMK A01 T00290005  RH  084%=      5-min Rain = 0
KCH1 171158Z 34004KT 03/01 A3008 RMK A01 T00300005  RH  084%=      5-min Rain = 0
KCH1 171159Z 34004KT 03/01 A3008 RMK A01 T00310005  RH  083%=      5-min Rain = 0
KCH1 171200Z 34003KT 03/01 A3008 RMK A01 T00330005  RH  082%=      5-min Rain = 0
KCH1 171201Z 33003KT 04/01 A3008 RMK A01 T00350006  RH  081%=      5-min Rain = 0
KCH1 171202Z 32003KT 04/01 A3008 RMK A01 T00350005  RH  081%=      5-min Rain = 0
KCH1 171203Z 32003KT 04/01 A3008 RMK A01 T00360005  RH  080%=      5-min Rain = 0
KCH1 171204Z 33004KT 04/01 A3008 RMK A01 T00380006  RH  079%=      5-min Rain = 0
KCH1 171205Z 33004KT 04/01 A3008 RMK A01 T00390005  RH  079%=      5-min Rain = 0
KCH1 171206Z 34004KT 04/01 A3008 RMK A01 T00400005  RH  078%=      5-min Rain = 0
KCH1 171207Z 34004KT 04/01 A3007 RMK A01 T00400005  RH  078%=      5-min Rain = 0
KCH1 171208Z 33003KT 04/01 A3007 RMK A01 T00400005  RH  078%=      5-min Rain = 0
KCH1 171209Z 31004KT 04/01 A3007 RMK A01 T00410005  RH  077%=      5-min Rain = 0
KCH1 171210Z 31004KT 04/01 A3007 RMK A01 T00420005  RH  077%=      5-min Rain = 0
KCH1 171211Z 30005KT 04/01 A3007 RMK A01 T00430005  RH  077%=      5-min Rain = 0
KCH1 171212Z 31005KT 04/01 A3007 RMK A01 T00430007  RH  077%=      5-min Rain = 0
KCH1 171213Z 31006KT 04/01 A3007 RMK A01 T00440010  RH  078%=      5-min Rain = 0
KCH1 171214Z 30006KT 05/01 A3007 RMK A01 T00470014  RH  079%=      5-min Rain = 0
KCH1 171215Z 30006KT 05/02 A3007 RMK A01 T00490016  RH  079%=      5-min Rain = 0
KCH1 171216Z 30006KT 05/02 A3007 RMK A01 T00490016  RH  079%=      5-min Rain = 0
KCH1 171217Z 31006KT 05/02 A3007 RMK A01 T00490019  RH  081%=      5-min Rain = 0
KCH1 171218Z 31006KT 05/02 A3007 RMK A01 T00510023  RH  082%=      5-min Rain = 0
KCH1 171219Z 31006KT 05/03 A3007 RMK A01 T00520025  RH  083%=      5-min Rain = 0
KCH1 171220Z 31006KT 05/03 A3007 RMK A01 T00530027  RH  083%=      5-min Rain = 0
KCH1 171221Z 31006KT 05/03 A3007 RMK A01 T00540027  RH  083%=      5-min Rain = 0
KCH1 171222Z 31006KT 06/03 A3007 RMK A01 T00550028  RH  083%=      5-min Rain = 0
KCH1 171223Z 32005KT 06/03 A3008 RMK A01 T00550028  RH  083%=      5-min Rain = 0
KCH1 171224Z 32005KT 06/03 A3008 RMK A01 T00560028  RH  082%=      5-min Rain = 0
KCH1 171225Z 31005KT 06/03 A3008 RMK A01 T00570027  RH  081%=      5-min Rain = 0
KCH1 171226Z 32004KT 06/03 A3008 RMK A01 T00570027  RH  081%=      5-min Rain = 0
KCH1 171227Z 31003KT 06/03 A3008 RMK A01 T00580026  RH  080%=      5-min Rain = 0
KCH1 171228Z 31004KT 06/03 A3008 RMK A01 T00580026  RH  080%=      5-min Rain = 0
KCH1 171229Z 31004KT 06/03 A3008 RMK A01 T00590026  RH  079%=      5-min Rain = 0
KCH1 171230Z 31004KT 06/03 A3008 RMK A01 T00590025  RH  079%=      5-min Rain = 0
KCH1 171231Z 32004KT 06/02 A3008 RMK A01 T00580022  RH  078%=      5-min Rain = 0
KCH1 171232Z 32003KT 06/02 A3008 RMK A01 T00590022  RH  077%=      5-min Rain = 0
KCH1 171233Z 32002KT 06/02 A3008 RMK A01 T00580021  RH  077%=      5-min Rain = 0
KCH1 171234Z 32002KT 06/02 A3008 RMK A01 T00560017  RH  076%=      5-min Rain = 0
KCH1 171235Z 33002KT 05/01 A3007 RMK A01 T00520014  RH  077%=      5-min Rain = 0
KCH1 171236Z 32002KT 05/01 A3007 RMK A01 T00490013  RH  077%=      5-min Rain = 0
KCH1 171237Z 31002KT 05/01 A3007 RMK A01 T00470013  RH  079%=      5-min Rain = 0
KCH1 171238Z 31002KT 05/01 A3007 RMK A01 T00450011  RH  079%=      5-min Rain = 0
KCH1 171239Z 30001KT 04/01 A3007 RMK A01 T00440013  RH  080%=      5-min Rain = 0
KCH1 171240Z 30002KT 04/02 A3007 RMK A01 T00440015  RH  081%=      5-min Rain = 0
KCH1 171241Z 31002KT 04/02 A3007 RMK A01 T00440015  RH  081%=      5-min Rain = 0
KCH1 171242Z 29002KT 04/02 A3007 RMK A01 T00440015  RH  081%=      5-min Rain = 0
KCH1 171243Z 30002KT 04/01 A3007 RMK A01 T00440014  RH  081%=      5-min Rain = 0
KCH1 171244Z 32003KT 04/02 A3007 RMK A01 T00440016  RH  082%=      5-min Rain = 0
KCH1 171245Z 32002KT 04/01 A3007 RMK A01 T00440013  RH  080%=      5-min Rain = 0
KCH1 171246Z 33000KT 04/01 A3007 RMK A01 T00420007  RH  078%=      5-min Rain = 0
KCH1 171247Z 34001KT 04/00 A3007 RMK A01 T00380003  RH  078%=      5-min Rain = 0
KCH1 171248Z 33001KT 03/00 A3007 RMK A01 T00340001  RH  079%=      5-min Rain = 0
KCH1 171249Z 32001KT 03/00 A3007 RMK A01 T00310000  RH  080%=      5-min Rain = 0
KCH1 171250Z 32001KT 03/00 A3007 RMK A01 T002900-0  RH  081%=      5-min Rain = 0
KCH1 171251Z 31001KT 03/00 A3007 RMK A01 T00280000  RH  082%=      5-min Rain = 0
KCH1 171252Z 31001KT 03/00 A3007 RMK A01 T00280001  RH  082%=      5-min Rain = 0
KCH1 171253Z 31001KT 03/00 A3007 RMK A01 T00280001  RH  082%=      5-min Rain = 0
KCH1 171254Z 31001KT 03/00 A3007 RMK A01 T00280001  RH  082%=      5-min Rain = 0
KCH1 171255Z 31001KT 03/00 A3007 RMK A01 T00290002  RH  082%=      5-min Rain = 0
KCH1 171256Z 31001KT 03/00 A3007 RMK A01 T00300004  RH  083%=      5-min Rain = 0
KCH1 171257Z 31001KT 03/01 A3007 RMK A01 T00310008  RH  085%=      5-min Rain = 0
KCH1 171258Z 32001KT 03/01 A3007 RMK A01 T00340013  RH  086%=      5-min Rain = 0
KCH1 171259Z 32001KT 04/02 A3007 RMK A01 T00370015  RH  085%=      5-min Rain = 0
KCH1 171300Z 33001KT 04/02 A3007 RMK A01 T00400016  RH  084%=      5-min Rain = 0
KCH1 171301Z 34001KT 04/02 A3007 RMK A01 T00420016  RH  083%=      5-min Rain = 0
KCH1 171302Z 34002KT 04/01 A3007 RMK A01 T00430014  RH  081%=      5-min Rain = 0
KCH1 171303Z 33002KT 04/01 A3007 RMK A01 T00430011  RH  080%=      5-min Rain = 0
KCH1 171304Z 33002KT 04/01 A3007 RMK A01 T00420010  RH  080%=      5-min Rain = 0
KCH1 171305Z 32003KT 04/01 A3007 RMK A01 T00410010  RH  080%=      5-min Rain = 0
KCH1 171306Z 32003KT 04/01 A3007 RMK A01 T00400010  RH  080%=      5-min Rain = 0
KCH1 171307Z 31003KT 04/01 A3007 RMK A01 T00400010  RH  081%=      5-min Rain = 0
KCH1 171308Z 31003KT 04/01 A3007 RMK A01 T00400011  RH  081%=      5-min Rain = 0
KCH1 171309Z 31003KT 04/01 A3007 RMK A01 T00400014  RH  083%=      5-min Rain = 0
KCH1 171310Z 31003KT 04/02 A3007 RMK A01 T00400017  RH  085%=      5-min Rain = 0
KCH1 171311Z 31003KT 04/02 A3008 RMK A01 T00400018  RH  085%=      5-min Rain = 0
KCH1 171312Z 30002KT 04/02 A3008 RMK A01 T00400018  RH  085%=      5-min Rain = 0
KCH1 171313Z 31002KT 04/02 A3008 RMK A01 T00400019  RH  086%=      5-min Rain = 0
KCH1 171314Z 30002KT 04/02 A3008 RMK A01 T00400020  RH  087%=      5-min Rain = 0
KCH1 171315Z 31003KT 04/02 A3008 RMK A01 T00400020  RH  087%=      5-min Rain = 0
KCH1 171316Z 31003KT 04/02 A3008 RMK A01 T00420023  RH  088%=      5-min Rain = 0
KCH1 171317Z 31003KT 04/03 A3008 RMK A01 T00430025  RH  088%=      5-min Rain = 0
KCH1 171318Z 31003KT 05/03 A3008 RMK A01 T00460027  RH  088%=      5-min Rain = 0
KCH1 171319Z 31003KT 05/03 A3008 RMK A01 T00480029  RH  088%=      5-min Rain = 0
KCH1 171320Z 30004KT 05/03 A3008 RMK A01 T00490030  RH  087%=      5-min Rain = 0
KCH1 171321Z 30005KT 05/03 A3008 RMK A01 T00510032  RH  088%=      5-min Rain = 0
KCH1 171322Z 30005KT 05/04 A3008 RMK A01 T00540035  RH  087%=      5-min Rain = 0
KCH1 171323Z 30005KT 06/04 A3008 RMK A01 T00560035  RH  086%=      5-min Rain = 0
KCH1 171324Z 29005KT 06/04 A3008 RMK A01 T00570035  RH  086%=      5-min Rain = 0
KCH1 171325Z 29004KT 06/04 A3008 RMK A01 T00590037  RH  086%=      5-min Rain = 0
KCH1 171326Z 30004KT 06/04 A3008 RMK A01 T00600038  RH  086%=      5-min Rain = 0
KCH1 171327Z 30005KT 06/04 A3008 RMK A01 T00600039  RH  086%=      5-min Rain = 0
KCH1 171328Z 30005KT 06/04 A3008 RMK A01 T00610040  RH  086%=      5-min Rain = 0
KCH1 171329Z 31004KT 06/04 A3008 RMK A01 T00620041  RH  087%=      5-min Rain = 0
KCH1 171330Z 31004KT 06/04 A3008 RMK A01 T00620042  RH  087%=      5-min Rain = 0
KCH1 171331Z 32002KT 06/04 A3008 RMK A01 T00630044  RH  087%=      5-min Rain = 0
KCH1 171332Z 33001KT 06/04 A3008 RMK A01 T00640044  RH  087%=      5-min Rain = 0
KCH1 171333Z 32001KT 06/04 A3008 RMK A01 T00610036  RH  084%=      5-min Rain = 0
KCH1 171334Z 32001KT 06/03 A3008 RMK A01 T00560030  RH  083%=      5-min Rain = 0
KCH1 171335Z 32001KT 05/03 A3008 RMK A01 T00520027  RH  083%=      5-min Rain = 0
KCH1 171336Z 32001KT 05/03 A3008 RMK A01 T00500026  RH  084%=      5-min Rain = 0
KCH1 171337Z 33001KT 05/03 A3008 RMK A01 T00490027  RH  086%=      5-min Rain = 0
KCH1 171338Z 32001KT 05/03 A3008 RMK A01 T00490030  RH  087%=      5-min Rain = 0
KCH1 171339Z 32000KT 05/03 A3008 RMK A01 T00490030  RH  088%=      5-min Rain = 0
KCH1 171340Z 00000KT 05/03 A3008 RMK A01 T00500031  RH  088%=      5-min Rain = 0
KCH1 171341Z 00000KT 05/03 A3008 RMK A01 T00500031  RH  088%=      5-min Rain = 0
KCH1 171342Z 00000KT 05/03 A3008 RMK A01 T00500032  RH  088%=      5-min Rain = 0
KCH1 171343Z 00000KT 05/03 A3008 RMK A01 T00500032  RH  088%=      5-min Rain = 0
KCH1 171344Z 00000KT 05/03 A3008 RMK A01 T00500033  RH  089%=      5-min Rain = 0
KCH1 171345Z 00000KT 05/03 A3008 RMK A01 T00500033  RH  089%=      5-min Rain = 0
KCH1 171346Z 00000KT 05/03 A3008 RMK A01 T00510034  RH  089%=      5-min Rain = 0
KCH1 171347Z 00000KT 05/04 A3008 RMK A01 T00520035  RH  089%=      5-min Rain = 0
KCH1 171348Z 00000KT 05/04 A3008 RMK A01 T00530037  RH  089%=      5-min Rain = 0
KCH1 171349Z 00000KT 05/04 A3008 RMK A01 T00540038  RH  089%=      5-min Rain = 0
KCH1 171350Z 26000KT 06/04 A3008 RMK A01 T00550038  RH  089%=      5-min Rain = 0
KCH1 171351Z 26001KT 06/04 A3008 RMK A01 T00560039  RH  089%=      5-min Rain = 0
KCH1 171352Z 27001KT 06/04 A3008 RMK A01 T00570041  RH  089%=      5-min Rain = 0
KCH1 171353Z 26001KT 06/04 A3008 RMK A01 T00580042  RH  089%=      5-min Rain = 0
KCH1 171354Z 26000KT 06/04 A3008 RMK A01 T00590043  RH  089%=      5-min Rain = 0
KCH1 171355Z 00000KT 06/05 A3007 RMK A01 T00610045  RH  090%=      5-min Rain = 0
KCH1 171356Z 00000KT 06/05 A3007 RMK A01 T00630045  RH  089%=      5-min Rain = 0
KCH1 171357Z 00000KT 06/04 A3008 RMK A01 T00630044  RH  088%=      5-min Rain = 0
KCH1 171358Z 00000KT 06/04 A3008 RMK A01 T00620043  RH  087%=      5-min Rain = 0
KCH1 171359Z 00000KT 06/04 A3008 RMK A01 T00610042  RH  087%=      5-min Rain = 0
KCH1 171400Z 00000KT 06/04 A3008 RMK A01 T00600042  RH  088%=      5-min Rain = 0
KCH1 171401Z 00000KT 06/04 A3008 RMK A01 T00600041  RH  088%=      5-min Rain = 0
KCH1 171402Z 00000KT 06/04 A3008 RMK A01 T00590041  RH  088%=      5-min Rain = 0
KCH1 171403Z 00000KT 06/04 A3008 RMK A01 T00590042  RH  088%=      5-min Rain = 0
KCH1 171404Z 00000KT 06/04 A3008 RMK A01 T00600042  RH  089%=      5-min Rain = 0
KCH1 171405Z 00000KT 06/04 A3008 RMK A01 T00610043  RH  089%=      5-min Rain = 0
KCH1 171406Z 00000KT 06/04 A3008 RMK A01 T00610044  RH  089%=      5-min Rain = 0
KCH1 171407Z 00000KT 06/05 A3008 RMK A01 T00630046  RH  089%=      5-min Rain = 0
KCH1 171408Z 00000KT 06/05 A3009 RMK A01 T00640048  RH  089%=      5-min Rain = 0
KCH1 171409Z 00000KT 07/05 A3009 RMK A01 T00660049  RH  089%=      5-min Rain = 0
KCH1 171410Z 00000KT 07/05 A3009 RMK A01 T00670050  RH  089%=      5-min Rain = 0
KCH1 171411Z 00000KT 07/05 A3009 RMK A01 T00680049  RH  088%=      5-min Rain = 0
KCH1 171412Z 00000KT 07/05 A3009 RMK A01 T00690049  RH  087%=      5-min Rain = 0
KCH1 171413Z 26000KT 07/05 A3009 RMK A01 T00700050  RH  087%=      5-min Rain = 0
KCH1 171414Z 00000KT 07/05 A3009 RMK A01 T00710051  RH  087%=      5-min Rain = 0
KCH1 171415Z 28000KT 07/05 A3009 RMK A01 T00730053  RH  087%=      5-min Rain = 0
KCH1 171416Z 28001KT 07/05 A3009 RMK A01 T00740054  RH  087%=      5-min Rain = 0
KCH1 171417Z 31002KT 08/05 A301 RMK A01 T00750054  RH  087%=      5-min Rain = 0
KCH1 171418Z 33001KT 08/06 A301 RMK A01 T00760055  RH  086%=      5-min Rain = 0
KCH1 171419Z 31000KT 08/06 A301 RMK A01 T00780055  RH  085%=      5-min Rain = 0
KCH1 171420Z 00000KT 08/06 A301 RMK A01 T00790055  RH  085%=      5-min Rain = 0
KCH1 171421Z 35000KT 08/06 A301 RMK A01 T00800055  RH  084%=      5-min Rain = 0
KCH1 171422Z 36001KT 08/06 A301 RMK A01 T00800055  RH  084%=      5-min Rain = 0
KCH1 171423Z 03001KT 08/06 A301 RMK A01 T00800055  RH  084%=      5-min Rain = 0
KCH1 171424Z 03002KT 08/06 A301 RMK A01 T00800055  RH  084%=      5-min Rain = 0
KCH1 171425Z 00001KT 08/05 A301 RMK A01 T00790054  RH  084%=      5-min Rain = 0
KCH1 171426Z 33001KT 08/05 A301 RMK A01 T00800053  RH  083%=      5-min Rain = 0
KCH1 171427Z 35001KT 08/05 A301 RMK A01 T00810052  RH  082%=      5-min Rain = 0
KCH1 171428Z 00001KT 08/05 A301 RMK A01 T00830053  RH  082%=      5-min Rain = 0
KCH1 171429Z 01001KT 08/05 A301 RMK A01 T00840054  RH  081%=      5-min Rain = 0
KCH1 171430Z 03001KT 09/06 A301 RMK A01 T00860055  RH  081%=      5-min Rain = 0
KCH1 171431Z 07001KT 09/05 A301 RMK A01 T00870054  RH  080%=      5-min Rain = 0
KCH1 171432Z 10001KT 09/06 A3009 RMK A01 T00870055  RH  080%=      5-min Rain = 0
KCH1 171433Z 00000KT 09/05 A3009 RMK A01 T00880053  RH  079%=      5-min Rain = 0
KCH1 171434Z 00000KT 09/05 A3009 RMK A01 T00880051  RH  078%=      5-min Rain = 0
KCH1 171435Z 00000KT 09/05 A3009 RMK A01 T00880053  RH  078%=      5-min Rain = 0
KCH1 171436Z 00000KT 09/05 A3009 RMK A01 T00890053  RH  078%=      5-min Rain = 0
KCH1 171437Z 00000KT 09/05 A3009 RMK A01 T00900054  RH  078%=      5-min Rain = 0
KCH1 171438Z 00000KT 09/05 A3009 RMK A01 T00910054  RH  078%=      5-min Rain = 0
KCH1 171439Z 00000KT 09/05 A3009 RMK A01 T00910054  RH  077%=      5-min Rain = 0
KCH1 171440Z 00000KT 09/05 A3009 RMK A01 T00920054  RH  077%=      5-min Rain = 0
KCH1 171441Z 00000KT 09/06 A3009 RMK A01 T00930055  RH  077%=      5-min Rain = 0
KCH1 171442Z 00000KT 09/06 A3009 RMK A01 T00930055  RH  077%=      5-min Rain = 0
KCH1 171443Z 00000KT 09/06 A3009 RMK A01 T00940056  RH  077%=      5-min Rain = 0
KCH1 171444Z 00000KT 10/06 A3009 RMK A01 T00950056  RH  077%=      5-min Rain = 0
KCH1 171445Z 01000KT 10/06 A3009 RMK A01 T00960056  RH  076%=      5-min Rain = 0
KCH1 171446Z 02000KT 10/06 A3009 RMK A01 T00960057  RH  077%=      5-min Rain = 0
KCH1 171447Z 05001KT 10/06 A3009 RMK A01 T00970058  RH  077%=      5-min Rain = 0
KCH1 171448Z 05001KT 10/06 A3009 RMK A01 T00970058  RH  077%=      5-min Rain = 0
KCH1 171449Z 05001KT 10/06 A3009 RMK A01 T00970058  RH  076%=      5-min Rain = 0
KCH1 171450Z 05001KT 10/06 A3009 RMK A01 T00980058  RH  076%=      5-min Rain = 0
KCH1 171451Z 06001KT 10/06 A3009 RMK A01 T00980057  RH  075%=      5-min Rain = 0
KCH1 171452Z 06001KT 10/06 A3009 RMK A01 T00990057  RH  075%=      5-min Rain = 0
KCH1 171453Z 05001KT 10/06 A3009 RMK A01 T01000055  RH  074%=      5-min Rain = 0
KCH1 171454Z 05001KT 10/05 A3009 RMK A01 T01000052  RH  072%=      5-min Rain = 0
KCH1 171455Z 06002KT 10/05 A3009 RMK A01 T01010049  RH  070%=      5-min Rain = 0
KCH1 171456Z 07002KT 10/05 A3009 RMK A01 T01020047  RH  069%=      5-min Rain = 0
KCH1 171457Z 06002KT 10/05 A3009 RMK A01 T01030045  RH  068%=      5-min Rain = 0
KCH1 171458Z 07002KT 10/04 A3009 RMK A01 T01030044  RH  067%=      5-min Rain = 0
KCH1 171459Z 07002KT 10/05 A3009 RMK A01 T01030045  RH  067%=      5-min Rain = 0
KCH1 171500Z 05001KT 10/04 A3009 RMK A01 T01030044  RH  067%=      5-min Rain = 0
KCH1 171501Z 06001KT 10/05 A3009 RMK A01 T01030048  RH  069%=      5-min Rain = 0
KCH1 171502Z 06002KT 10/05 A3009 RMK A01 T01040048  RH  068%=      5-min Rain = 0
KCH1 171503Z 07002KT 10/05 A3009 RMK A01 T01040048  RH  068%=      5-min Rain = 0
KCH1 171504Z 07002KT 11/05 A3009 RMK A01 T01050046  RH  067%=      5-min Rain = 0
KCH1 171505Z 08002KT 11/05 A3009 RMK A01 T01060048  RH  067%=      5-min Rain = 0
KCH1 171506Z 08003KT 11/05 A3009 RMK A01 T01070047  RH  066%=      5-min Rain = 0
KCH1 171507Z 09003KT 11/04 A3009 RMK A01 T01070044  RH  065%=      5-min Rain = 0
KCH1 171508Z 08002KT 11/05 A3009 RMK A01 T01080045  RH  065%=      5-min Rain = 0
KCH1 171509Z 07003KT 11/05 A3009 RMK A01 T01100045  RH  064%=      5-min Rain = 0
KCH1 171510Z 07002KT 11/04 A3009 RMK A01 T01120041  RH  062%=      5-min Rain = 0
KCH1 171511Z 09002KT 11/04 A3009 RMK A01 T01130040  RH  061%=      5-min Rain = 0
KCH1 171512Z 08003KT 11/04 A3009 RMK A01 T01140038  RH  059%=      5-min Rain = 0
KCH1 171513Z 07003KT 12/03 A3009 RMK A01 T01150033  RH  057%=      5-min Rain = 0
KCH1 171514Z 10002KT 12/04 A3009 RMK A01 T01160036  RH  058%=      5-min Rain = 0
KCH1 171515Z 09002KT 12/04 A3009 RMK A01 T01190041  RH  059%=      5-min Rain = 0
KCH1 171516Z 09003KT 12/04 A3009 RMK A01 T01210043  RH  059%=      5-min Rain = 0
KCH1 171517Z 09002KT 12/04 A3009 RMK A01 T01240042  RH  057%=      5-min Rain = 0
KCH1 171518Z 09001KT 13/04 A3009 RMK A01 T01250040  RH  056%=      5-min Rain = 0
KCH1 171519Z 11001KT 13/04 A3009 RMK A01 T01260039  RH  055%=      5-min Rain = 0
KCH1 171520Z 08000KT 13/03 A3009 RMK A01 T01280034  RH  053%=      5-min Rain = 0
KCH1 171521Z 07001KT 13/03 A3009 RMK A01 T01290033  RH  052%=      5-min Rain = 0
KCH1 171522Z 07001KT 13/03 A3009 RMK A01 T01290027  RH  050%=      5-min Rain = 0
KCH1 171523Z 06001KT 13/03 A3009 RMK A01 T01290028  RH  050%=      5-min Rain = 0
KCH1 171524Z 05001KT 13/03 A3009 RMK A01 T01300031  RH  051%=      5-min Rain = 0
KCH1 171525Z 07002KT 13/03 A3009 RMK A01 T01310032  RH  051%=      5-min Rain = 0
KCH1 171526Z 06002KT 13/03 A3009 RMK A01 T01320028  RH  049%=      5-min Rain = 0
KCH1 171527Z 06002KT 13/03 A3009 RMK A01 T01320029  RH  050%=      5-min Rain = 0
KCH1 171528Z 06002KT 13/03 A3009 RMK A01 T01320032  RH  051%=      5-min Rain = 0
KCH1 171529Z 08003KT 13/03 A3009 RMK A01 T01320033  RH  051%=      5-min Rain = 0
KCH1 171530Z 09003KT 13/03 A3009 RMK A01 T01330034  RH  051%=      5-min Rain = 0
KCH1 171531Z 10002KT 13/03 A3009 RMK A01 T01340032  RH  050%=      5-min Rain = 0
KCH1 171532Z 09003KT 13/03 A3009 RMK A01 T01340031  RH  050%=      5-min Rain = 0
KCH1 171533Z 10002KT 14/03 A3009 RMK A01 T01350031  RH  049%=      5-min Rain = 0
KCH1 171534Z 11001KT 14/03 A3009 RMK A01 T01370030  RH  048%=      5-min Rain = 0
KCH1 171535Z 10001KT 14/03 A3009 RMK A01 T01370031  RH  049%=      5-min Rain = 0
KCH1 171536Z 11002KT 14/03 A3009 RMK A01 T01380028  RH  047%=      5-min Rain = 0
KCH1 171537Z 09002KT 14/03 A3009 RMK A01 T01390028  RH  047%=      5-min Rain = 0
KCH1 171538Z 10003KT 14/03 A3009 RMK A01 T01410029  RH  047%=      5-min Rain = 0
KCH1 171539Z 08003KT 14/03 A3009 RMK A01 T01430027  RH  045%=      5-min Rain = 0
KCH1 171540Z 09002KT 15/03 A3009 RMK A01 T01460026  RH  045%=      5-min Rain = 0
KCH1 171541Z 07002KT 15/02 A3009 RMK A01 T01480024  RH  043%=      5-min Rain = 0
KCH1 171542Z 07002KT 15/01 A3009 RMK A01 T01490012  RH  039%=      5-min Rain = 0
KCH1 171543Z 07003KT 15/01 A3009 RMK A01 T01480011  RH  039%=      5-min Rain = 0
KCH1 171544Z 08003KT 15/01 A3009 RMK A01 T01480013  RH  040%=      5-min Rain = 0
KCH1 171545Z 07003KT 15/01 A3009 RMK A01 T01500013  RH  039%=      5-min Rain = 0
KCH1 171546Z 05004KT 15/02 A3009 RMK A01 T01510019  RH  041%=      5-min Rain = 0
KCH1 171547Z 04002KT 15/02 A3009 RMK A01 T01520021  RH  041%=      5-min Rain = 0
KCH1 171548Z 05002KT 15/02 A3009 RMK A01 T01540023  RH  041%=      5-min Rain = 0
KCH1 171549Z 05002KT 16/02 A3009 RMK A01 T01560021  RH  040%=      5-min Rain = 0
KCH1 171550Z 05002KT 16/02 A3009 RMK A01 T01570021  RH  040%=      5-min Rain = 0
KCH1 171551Z 07001KT 16/02 A3009 RMK A01 T01570022  RH  040%=      5-min Rain = 0
KCH1 171552Z 15001KT 16/02 A3008 RMK A01 T01590019  RH  039%=      5-min Rain = 0
KCH1 171553Z 14001KT 16/02 A3009 RMK A01 T01610015  RH  037%=      5-min Rain = 0
KCH1 171554Z 16002KT 16/02 A3008 RMK A01 T01640015  RH  037%=      5-min Rain = 0
KCH1 171555Z 17002KT 17/01 A3008 RMK A01 T01660013  RH  036%=      5-min Rain = 0
KCH1 171556Z 18002KT 17/01 A3008 RMK A01 T01680014  RH  035%=      5-min Rain = 0
KCH1 171557Z 18001KT 17/01 A3008 RMK A01 T01680013  RH  035%=      5-min Rain = 0
KCH1 171558Z 16001KT 17/01 A3008 RMK A01 T01690012  RH  035%=      5-min Rain = 0
KCH1 171559Z 13000KT 17/01 A3009 RMK A01 T01700012  RH  034%=      5-min Rain = 0
KCH1 171600Z 16000KT 17/01 A3009 RMK A01 T01730014  RH  034%=      5-min Rain = 0
KCH1 171601Z 21000KT 17/01 A3009 RMK A01 T01740012  RH  033%=      5-min Rain = 0
KCH1 171602Z 31000KT 17/01 A3009 RMK A01 T01740011  RH  033%=      5-min Rain = 0
KCH1 171603Z 28003KT 18/01 A3008 RMK A01 T01750013  RH  033%=      5-min Rain = 0
KCH1 171604Z 32002KT 17/01 A3008 RMK A01 T01740011  RH  033%=      5-min Rain = 0
KCH1 171605Z 35001KT 17/01 A3008 RMK A01 T01730012  RH  034%=      5-min Rain = 0
KCH1 171606Z 31000KT 17/01 A3008 RMK A01 T01730010  RH  033%=      5-min Rain = 0
KCH1 171607Z 31000KT 17/01 A3008 RMK A01 T01720010  RH  033%=      5-min Rain = 0
KCH1 171608Z 03000KT 17/01 A3008 RMK A01 T01740011  RH  033%=      5-min Rain = 0
KCH1 171609Z 20001KT 18/01 A3008 RMK A01 T01760012  RH  033%=      5-min Rain = 0
KCH1 171610Z 20002KT 18/01 A3008 RMK A01 T01770012  RH  033%=      5-min Rain = 0
KCH1 171611Z 18002KT 18/01 A3008 RMK A01 T01770007  RH  032%=      5-min Rain = 0
KCH1 171612Z 20003KT 18/01 A3008 RMK A01 T01800012  RH  032%=      5-min Rain = 0
KCH1 171613Z 23003KT 18/01 A3008 RMK A01 T01830011  RH  031%=      5-min Rain = 0
KCH1 171614Z 22004KT 18/01 A3008 RMK A01 T01820007  RH  031%=      5-min Rain = 0
KCH1 171615Z 21004KT 18/01 A3007 RMK A01 T01800009  RH  032%=      5-min Rain = 0
KCH1 171616Z 19002KT 18/01 A3008 RMK A01 T01770009  RH  032%=      5-min Rain = 0
KCH1 171617Z 20001KT 18/01 A3008 RMK A01 T01750010  RH  033%=      5-min Rain = 0
KCH1 171618Z 23002KT 18/01 A3008 RMK A01 T01760010  RH  033%=      5-min Rain = 0
KCH1 171619Z 23002KT 18/01 A3008 RMK A01 T01780014  RH  033%=      5-min Rain = 0
KCH1 171620Z 20001KT 18/01 A3008 RMK A01 T01800014  RH  033%=      5-min Rain = 0
KCH1 171621Z 16002KT 18/01 A3007 RMK A01 T01810012  RH  032%=      5-min Rain = 0
KCH1 171622Z 19002KT 18/01 A3007 RMK A01 T01820011  RH  032%=      5-min Rain = 0
KCH1 171623Z 23002KT 18/01 A3007 RMK A01 T01820011  RH  032%=      5-min Rain = 0
KCH1 171624Z 23004KT 18/01 A3007 RMK A01 T01810011  RH  032%=      5-min Rain = 0
KCH1 171625Z 23004KT 18/01 A3007 RMK A01 T01790010  RH  032%=      5-min Rain = 0
KCH1 171626Z 21004KT 18/01 A3007 RMK A01 T01780009  RH  032%=      5-min Rain = 0
KCH1 171627Z 21003KT 18/01 A3007 RMK A01 T01780008  RH  032%=      5-min Rain = 0
KCH1 171628Z 19004KT 18/01 A3007 RMK A01 T01780007  RH  031%=      5-min Rain = 0
KCH1 171629Z 20004KT 18/00 A3007 RMK A01 T01780004  RH  031%=      5-min Rain = 0
KCH1 171630Z 23004KT 18/01 A3007 RMK A01 T01780008  RH  032%=      5-min Rain = 0
KCH1 171631Z 20003KT 18/01 A3007 RMK A01 T01780010  RH  032%=      5-min Rain = 0
KCH1 171632Z 21005KT 18/01 A3007 RMK A01 T01800011  RH  032%=      5-min Rain = 0
KCH1 171633Z 20004KT 18/01 A3007 RMK A01 T01820012  RH  032%=      5-min Rain = 0
KCH1 171634Z 20004KT 18/01 A3007 RMK A01 T01830011  RH  031%=      5-min Rain = 0
KCH1 171635Z 19004KT 18/01 A3007 RMK A01 T01840014  RH  032%=      5-min Rain = 0
KCH1 171636Z 21004KT 19/01 A3007 RMK A01 T01870012  RH  031%=      5-min Rain = 0
KCH1 171637Z 17005KT 19/01 A3007 RMK A01 T01870011  RH  031%=      5-min Rain = 0
KCH1 171638Z 17005KT 19/01 A3007 RMK A01 T01890010  RH  030%=      5-min Rain = 0
KCH1 171639Z 18005KT 19/01 A3007 RMK A01 T01890009  RH  030%=      5-min Rain = 0
KCH1 171640Z 18005KT 19/01 A3007 RMK A01 T01900010  RH  030%=      5-min Rain = 0
KCH1 171641Z 18004KT 19/01 A3007 RMK A01 T01900009  RH  030%=      5-min Rain = 0
KCH1 171642Z 19004KT 19/01 A3006 RMK A01 T01890009  RH  030%=      5-min Rain = 0
KCH1 171643Z 17004KT 19/01 A3006 RMK A01 T01890009  RH  030%=      5-min Rain = 0
KCH1 171644Z 17005KT 19/01 A3006 RMK A01 T01880010  RH  030%=      5-min Rain = 0
KCH1 171645Z 15005KT 19/01 A3006 RMK A01 T01880012  RH  031%=      5-min Rain = 0
KCH1 171646Z 17004KT 19/01 A3006 RMK A01 T01890013  RH  031%=      5-min Rain = 0
KCH1 171647Z 17004KT 19/01 A3006 RMK A01 T01900010  RH  030%=      5-min Rain = 0
KCH1 171648Z 15006KT 19/01 A3006 RMK A01 T01900012  RH  030%=      5-min Rain = 0
KCH1 171649Z 15008KT 19/01 A3006 RMK A01 T01910013  RH  030%=      5-min Rain = 0
KCH1 171650Z 17005KT 19/01 A3006 RMK A01 T01940012  RH  029%=      5-min Rain = 0
KCH1 171651Z 18005KT 20/01 A3006 RMK A01 T01950011  RH  029%=      5-min Rain = 0
KCH1 171652Z 16006KT 20/01 A3006 RMK A01 T01960012  RH  029%=      5-min Rain = 0
KCH1 171653Z 17005KT 20/01 A3006 RMK A01 T01970010  RH  028%=      5-min Rain = 0
KCH1 171654Z 15005KT 20/01 A3006 RMK A01 T01970009  RH  028%=      5-min Rain = 0
KCH1 171655Z 16006KT 20/01 A3006 RMK A01 T01960009  RH  029%=      5-min Rain = 0
KCH1 171656Z 14008KT 20/01 A3006 RMK A01 T01960008  RH  029%=      5-min Rain = 0
KCH1 171657Z 15008KT 20/01 A3006 RMK A01 T01960005  RH  028%=      5-min Rain = 0
KCH1 171658Z 14006KT 20/01 A3006 RMK A01 T01970006  RH  028%=      5-min Rain = 0
KCH1 171659Z 14004KT 20/01 A3006 RMK A01 T01980006  RH  028%=      5-min Rain = 0
KCH1 171700Z 14005KT 20/01 A3006 RMK A01 T02000006  RH  027%=      5-min Rain = 0
KCH1 171701Z 13006KT 20/01 A3006 RMK A01 T02010006  RH  027%=      5-min Rain = 0
KCH1 171702Z 15009KT 20/00 A3006 RMK A01 T02030004  RH  026%=      5-min Rain = 0
KCH1 171703Z 16008KT 20/00 A3006 RMK A01 T02030002  RH  026%=      5-min Rain = 0
KCH1 171704Z 16006KT 20/00 A3006 RMK A01 T02010001  RH  026%=      5-min Rain = 0
KCH1 171705Z 17007KT 20/00 A3006 RMK A01 T02000002  RH  027%=      5-min Rain = 0
KCH1 171706Z 17006KT 20/00 A3005 RMK A01 T02010004  RH  027%=      5-min Rain = 0
KCH1 171707Z 16003KT 20/00 A3005 RMK A01 T02020001  RH  026%=      5-min Rain = 0
KCH1 171708Z 18006KT 20/00 A3005 RMK A01 T02020003  RH  026%=      5-min Rain = 0
KCH1 171709Z 17008KT 20/00 A3005 RMK A01 T02040004  RH  026%=      5-min Rain = 0
KCH1 171710Z 17009KT 20/01 A3005 RMK A01 T02040006  RH  027%=      5-min Rain = 0
KCH1 171711Z 17008KT 20/01 A3005 RMK A01 T02030005  RH  027%=      5-min Rain = 0
KCH1 171712Z 18005KT 20/01 A3005 RMK A01 T02010005  RH  027%=      5-min Rain = 0
KCH1 171713Z 15004KT 20/00 A3005 RMK A01 T02010004  RH  027%=      5-min Rain = 0
KCH1 171714Z 16009KT 20/01 A3005 RMK A01 T02020006  RH  027%=      5-min Rain = 0
KCH1 171715Z 16008KT 20/01 A3005 RMK A01 T02020006  RH  027%=      5-min Rain = 0
KCH1 171716Z 16007KT 20/01 A3005 RMK A01 T02030007  RH  027%=      5-min Rain = 0
KCH1 171717Z 16006KT 20/01 A3005 RMK A01 T02030006  RH  027%=      5-min Rain = 0
KCH1 171718Z 16003KT 20/01 A3005 RMK A01 T02030007  RH  027%=      5-min Rain = 0
KCH1 171719Z 14004KT 20/01 A3005 RMK A01 T02030007  RH  027%=      5-min Rain = 0
KCH1 171720Z 14004KT 20/01 A3005 RMK A01 T02040008  RH  027%=      5-min Rain = 0
KCH1 171721Z 16003KT 21/01 A3005 RMK A01 T02050007  RH  027%=      5-min Rain = 0
KCH1 171722Z 16006KT 21/01 A3005 RMK A01 T02050009  RH  027%=      5-min Rain = 0
KCH1 171723Z 16006KT 21/01 A3005 RMK A01 T02070012  RH  027%=      5-min Rain = 0
KCH1 171724Z 17008KT 21/01 A3005 RMK A01 T02090011  RH  027%=      5-min Rain = 0
KCH1 171725Z 19006KT 21/01 A3005 RMK A01 T02080008  RH  026%=      5-min Rain = 0
KCH1 171726Z 19007KT 21/01 A3005 RMK A01 T02070007  RH  026%=      5-min Rain = 0
KCH1 171727Z 19007KT 20/01 A3005 RMK A01 T02040005  RH  026%=      5-min Rain = 0
KCH1 171728Z 18006KT 20/01 A3005 RMK A01 T02020005  RH  027%=      5-min Rain = 0
KCH1 171729Z 16006KT 20/01 A3005 RMK A01 T02010005  RH  027%=      5-min Rain = 0
KCH1 171730Z 15006KT 20/01 A3005 RMK A01 T02010006  RH  027%=      5-min Rain = 0
KCH1 171731Z 15007KT 20/01 A3005 RMK A01 T02020006  RH  027%=      5-min Rain = 0
KCH1 171732Z 15007KT 20/01 A3005 RMK A01 T02030005  RH  027%=      5-min Rain = 0
KCH1 171733Z 15006KT 20/01 A3005 RMK A01 T02030007  RH  027%=      5-min Rain = 0
KCH1 171734Z 16007KT 21/01 A3005 RMK A01 T02050007  RH  027%=      5-min Rain = 0
KCH1 171735Z 13006KT 21/01 A3005 RMK A01 T02050006  RH  026%=      5-min Rain = 0
KCH1 171736Z 13007KT 21/01 A3005 RMK A01 T02060008  RH  027%=      5-min Rain = 0
KCH1 171737Z 17006KT 21/01 A3005 RMK A01 T02080009  RH  027%=      5-min Rain = 0
KCH1 171738Z 15007KT 21/01 A3005 RMK A01 T02100007  RH  026%=      5-min Rain = 0
KCH1 171739Z 15005KT 21/01 A3005 RMK A01 T02090008  RH  026%=      5-min Rain = 0
KCH1 171740Z 16006KT 21/01 A3005 RMK A01 T02100007  RH  026%=      5-min Rain = 0
KCH1 171741Z 15006KT 21/01 A3005 RMK A01 T02090008  RH  026%=      5-min Rain = 0
KCH1 171742Z 13005KT 21/01 A3005 RMK A01 T02110009  RH  026%=      5-min Rain = 0
KCH1 171743Z 12005KT 21/01 A3005 RMK A01 T02110007  RH  026%=      5-min Rain = 0
KCH1 171744Z 12006KT 21/01 A3005 RMK A01 T02080007  RH  026%=      5-min Rain = 0
KCH1 171745Z 12003KT 21/01 A3005 RMK A01 T02080008  RH  026%=      5-min Rain = 0
KCH1 171746Z 16002KT 21/01 A3004 RMK A01 T02080008  RH  026%=      5-min Rain = 0
KCH1 171747Z 19001KT 21/01 A3004 RMK A01 T02100011  RH  027%=      5-min Rain = 0
KCH1 171748Z 17003KT 21/01 A3004 RMK A01 T02130011  RH  026%=      5-min Rain = 0
KCH1 171749Z 11004KT 21/01 A3004 RMK A01 T02140008  RH  025%=      5-min Rain = 0
KCH1 171750Z 11004KT 21/01 A3004 RMK A01 T02140010  RH  026%=      5-min Rain = 0
KCH1 171751Z 11003KT 21/01 A3004 RMK A01 T02140009  RH  026%=      5-min Rain = 0
KCH1 171752Z 17003KT 21/01 A3004 RMK A01 T02140012  RH  026%=      5-min Rain = 0
KCH1 171753Z 13004KT 22/01 A3004 RMK A01 T02160012  RH  026%=      5-min Rain = 0
KCH1 171754Z 17004KT 22/01 A3004 RMK A01 T02180013  RH  026%=      5-min Rain = 0
KCH1 171755Z 18004KT 22/01 A3004 RMK A01 T02180013  RH  026%=      5-min Rain = 0
KCH1 171756Z 18004KT 22/01 A3004 RMK A01 T02170014  RH  026%=      5-min Rain = 0
KCH1 171757Z 18002KT 22/01 A3004 RMK A01 T02160012  RH  026%=      5-min Rain = 0
KCH1 171758Z 17005KT 22/01 A3003 RMK A01 T02160014  RH  026%=      5-min Rain = 0
KCH1 171759Z 14003KT 22/01 A3003 RMK A01 T02160010  RH  025%=      5-min Rain = 0
KCH1 171800Z 14003KT 21/01 A3003 RMK A01 T02140010  RH  026%=      5-min Rain = 0
KCH1 171801Z 13005KT 21/01 A3003 RMK A01 T02130011  RH  026%=      5-min Rain = 0
KCH1 171802Z 09004KT 21/01 A3003 RMK A01 T02120012  RH  026%=      5-min Rain = 0
KCH1 171803Z 15003KT 21/01 A3003 RMK A01 T02100011  RH  027%=      5-min Rain = 0
KCH1 171804Z 17005KT 21/01 A3003 RMK A01 T02090012  RH  027%=      5-min Rain = 0
KCH1 171805Z 17005KT 21/01 A3003 RMK A01 T02090011  RH  027%=      5-min Rain = 0
KCH1 171806Z 18005KT 21/01 A3002 RMK A01 T02100013  RH  027%=      5-min Rain = 0
KCH1 171807Z 18006KT 21/02 A3002 RMK A01 T02140015  RH  027%=      5-min Rain = 0
KCH1 171808Z 18006KT 22/01 A3002 RMK A01 T02170014  RH  026%=      5-min Rain = 0
KCH1 171809Z 17005KT 22/01 A3002 RMK A01 T02160013  RH  026%=      5-min Rain = 0
KCH1 171810Z 15005KT 21/01 A3002 RMK A01 T02140014  RH  027%=      5-min Rain = 0
KCH1 171811Z 16002KT 21/01 A3002 RMK A01 T02140012  RH  026%=      5-min Rain = 0
KCH1 171812Z 14002KT 21/01 A3002 RMK A01 T02140013  RH  026%=      5-min Rain = 0
KCH1 171813Z 18006G11KT 21/01 A3002 RMK A01 T02130014  RH  027%=      5-min Rain = 0
KCH1 171814Z 18009KT 21/02 A3002 RMK A01 T02140015  RH  027%=      5-min Rain = 0
KCH1 171815Z 17007KT 21/01 A3002 RMK A01 T02130013  RH  026%=      5-min Rain = 0
KCH1 171816Z 18007KT 21/01 A3002 RMK A01 T02110014  RH  027%=      5-min Rain = 0
KCH1 171817Z 18005KT 21/01 A3002 RMK A01 T02100014  RH  027%=      5-min Rain = 0
KCH1 171818Z 18008G14KT 21/02 A3002 RMK A01 T02110016  RH  028%=      5-min Rain = 0
KCH1 171819Z 19005KT 21/02 A3002 RMK A01 T02120015  RH  027%=      5-min Rain = 0
KCH1 171820Z 20006KT 21/02 A3002 RMK A01 T02110016  RH  027%=      5-min Rain = 0
KCH1 171821Z 17006KT 21/01 A3002 RMK A01 T02100014  RH  027%=      5-min Rain = 0
KCH1 171822Z 13005KT 21/02 A3002 RMK A01 T02120018  RH  028%=      5-min Rain = 0
KCH1 171823Z 13006KT 22/02 A3002 RMK A01 T02180019  RH  027%=      5-min Rain = 0
KCH1 171824Z 12005KT 22/02 A3002 RMK A01 T02200017  RH  026%=      5-min Rain = 0
KCH1 171825Z 11003KT 22/02 A3002 RMK A01 T02190018  RH  026%=      5-min Rain = 0
KCH1 171826Z 14003KT 22/02 A3001 RMK A01 T02190020  RH  027%=      5-min Rain = 0
KCH1 171827Z 20008KT 22/02 A3002 RMK A01 T02210022  RH  027%=      5-min Rain = 0
KCH1 171828Z 18007KT 22/02 A3002 RMK A01 T02200021  RH  027%=      5-min Rain = 0
KCH1 171829Z 18007KT 22/02 A3002 RMK A01 T02160022  RH  028%=      5-min Rain = 0
KCH1 171830Z 19005KT 21/02 A3002 RMK A01 T02140021  RH  028%=      5-min Rain = 0
KCH1 171831Z 20005KT 22/02 A3002 RMK A01 T02150022  RH  028%=      5-min Rain = 0
KCH1 171832Z 14005KT 22/02 A3002 RMK A01 T02190023  RH  028%=      5-min Rain = 0
KCH1 171833Z 13004KT 22/02 A3002 RMK A01 T02190022  RH  027%=      5-min Rain = 0
KCH1 171834Z 16006KT 22/02 A3002 RMK A01 T02180024  RH  028%=      5-min Rain = 0
KCH1 171835Z 17006KT 22/02 A3002 RMK A01 T02210024  RH  027%=      5-min Rain = 0
KCH1 171836Z 17004KT 22/02 A3001 RMK A01 T02230024  RH  027%=      5-min Rain = 0
KCH1 171837Z 17005KT 22/02 A3001 RMK A01 T02220024  RH  027%=      5-min Rain = 0
KCH1 171838Z 15004KT 22/02 A3001 RMK A01 T02200024  RH  027%=      5-min Rain = 0
KCH1 171839Z 13006KT 22/03 A3001 RMK A01 T02200026  RH  028%=      5-min Rain = 0
KCH1 171840Z 15005KT 22/03 A3001 RMK A01 T02210026  RH  028%=      5-min Rain = 0
KCH1 171841Z 14004KT 22/03 A3001 RMK A01 T02220027  RH  028%=      5-min Rain = 0
KCH1 171842Z 17006KT 22/03 A3001 RMK A01 T02240027  RH  027%=      5-min Rain = 0
KCH1 171843Z 15005KT 22/02 A3001 RMK A01 T02240023  RH  027%=      5-min Rain = 0
KCH1 171844Z 18006KT 22/02 A3001 RMK A01 T02230024  RH  027%=      5-min Rain = 0
KCH1 171845Z 16008KT 23/02 A3001 RMK A01 T02250023  RH  027%=      5-min Rain = 0
KCH1 171846Z 17007KT 22/02 A3001 RMK A01 T02230021  RH  026%=      5-min Rain = 0
KCH1 171847Z 19005KT 22/02 A3001 RMK A01 T02200022  RH  027%=      5-min Rain = 0
KCH1 171848Z 19004KT 22/02 A30 RMK A01 T02190021  RH  027%=      5-min Rain = 0
KCH1 171849Z 14005KT 22/02 A30 RMK A01 T02210024  RH  027%=      5-min Rain = 0
KCH1 171850Z 13006KT 23/02 A30 RMK A01 T02250024  RH  027%=      5-min Rain = 0
KCH1 171851Z 13005KT 23/02 A30 RMK A01 T02260023  RH  026%=      5-min Rain = 0
KCH1 171852Z 13004KT 22/02 A30 RMK A01 T02240022  RH  026%=      5-min Rain = 0
KCH1 171853Z 16007KT 22/03 A30 RMK A01 T02240025  RH  027%=      5-min Rain = 0
KCH1 171854Z 16007KT 22/03 A30 RMK A01 T02240025  RH  027%=      5-min Rain = 0
KCH1 171855Z 16008KT 22/02 A30 RMK A01 T02220024  RH  027%=      5-min Rain = 0
KCH1 171856Z 15006KT 22/03 A30 RMK A01 T02210025  RH  027%=      5-min Rain = 0
KCH1 171857Z 18007KT 22/03 A30 RMK A01 T02210026  RH  028%=      5-min Rain = 0
KCH1 171858Z 19006KT 22/02 A30 RMK A01 T02220024  RH  027%=      5-min Rain = 0
KCH1 171859Z 18003KT 22/02 A30 RMK A01 T02200023  RH  027%=      5-min Rain = 0
KCH1 171900Z 15005KT 22/03 A2999 RMK A01 T02200026  RH  028%=      5-min Rain = 0
KCH1 171901Z 14007KT 22/03 A2999 RMK A01 T02230029  RH  028%=      5-min Rain = 0
KCH1 171902Z 18005KT 23/03 A2999 RMK A01 T02270030  RH  027%=      5-min Rain = 0
KCH1 171903Z 14006KT 23/03 A2999 RMK A01 T02270031  RH  028%=      5-min Rain = 0
KCH1 171904Z 13006KT 23/03 A2999 RMK A01 T02280030  RH  027%=      5-min Rain = 0
KCH1 171905Z 14007KT 23/03 A2999 RMK A01 T02280029  RH  027%=      5-min Rain = 0
KCH1 171906Z 15009KT 23/03 A2999 RMK A01 T02280028  RH  027%=      5-min Rain = 0
KCH1 171907Z 14007KT 23/03 A2999 RMK A01 T02260030  RH  028%=      5-min Rain = 0
KCH1 171908Z 14006KT 23/03 A2999 RMK A01 T02260032  RH  028%=      5-min Rain = 0
KCH1 171909Z 15006KT 23/03 A2999 RMK A01 T02280033  RH  028%=      5-min Rain = 0
KCH1 171910Z 14006KT 23/03 A2999 RMK A01 T02310033  RH  027%=      5-min Rain = 0
KCH1 171911Z 17006KT 23/04 A2999 RMK A01 T02320035  RH  028%=      5-min Rain = 0
KCH1 171912Z 18005KT 23/04 A2999 RMK A01 T02310036  RH  028%=      5-min Rain = 0
KCH1 171913Z 18005KT 23/04 A2998 RMK A01 T02270037  RH  029%=      5-min Rain = 0
KCH1 171914Z 15007KT 23/04 A2998 RMK A01 T02250036  RH  029%=      5-min Rain = 0
KCH1 171915Z 17005KT 23/03 A2998 RMK A01 T02260034  RH  028%=      5-min Rain = 0
KCH1 171916Z 15006KT 23/03 A2998 RMK A01 T02280033  RH  028%=      5-min Rain = 0
KCH1 171917Z 15006KT 23/03 A2998 RMK A01 T02270031  RH  028%=      5-min Rain = 0
KCH1 171918Z 15008KT 23/03 A2998 RMK A01 T02260033  RH  028%=      5-min Rain = 0
KCH1 171919Z 13008KT 23/03 A2998 RMK A01 T02250034  RH  029%=      5-min Rain = 0
KCH1 171920Z 12006KT 22/03 A2998 RMK A01 T02240034  RH  029%=      5-min Rain = 0
KCH1 171921Z 14008KT 23/04 A2998 RMK A01 T02250036  RH  029%=      5-min Rain = 0
KCH1 171922Z 16006KT 23/04 A2998 RMK A01 T02260037  RH  029%=      5-min Rain = 0
KCH1 171923Z 16008KT 23/04 A2998 RMK A01 T02300040  RH  029%=      5-min Rain = 0
KCH1 171924Z 14007KT 23/04 A2998 RMK A01 T02320039  RH  028%=      5-min Rain = 0
KCH1 171925Z 14008KT 23/04 A2998 RMK A01 T02310038  RH  028%=      5-min Rain = 0
KCH1 171926Z 13007KT 23/04 A2998 RMK A01 T02290038  RH  029%=      5-min Rain = 0
KCH1 171927Z 14007KT 23/04 A2998 RMK A01 T02300039  RH  029%=      5-min Rain = 0
KCH1 171928Z 13007KT 23/04 A2998 RMK A01 T02310040  RH  029%=      5-min Rain = 0
KCH1 171929Z 14008KT 23/04 A2998 RMK A01 T02320038  RH  028%=      5-min Rain = 0
KCH1 171930Z 13007KT 23/04 A2998 RMK A01 T02280038  RH  029%=      5-min Rain = 0
KCH1 171931Z 14006KT 23/04 A2998 RMK A01 T02270038  RH  029%=      5-min Rain = 0
KCH1 171932Z 16007KT 23/04 A2997 RMK A01 T02260038  RH  029%=      5-min Rain = 0
KCH1 171933Z 17006KT 23/04 A2997 RMK A01 T02270040  RH  029%=      5-min Rain = 0
KCH1 171934Z 17005KT 23/04 A2997 RMK A01 T02300041  RH  029%=      5-min Rain = 0
KCH1 171935Z 16006KT 23/04 A2997 RMK A01 T02330041  RH  029%=      5-min Rain = 0
KCH1 171936Z 20006KT 23/04 A2997 RMK A01 T02340041  RH  028%=      5-min Rain = 0
KCH1 171937Z 20005KT 23/04 A2997 RMK A01 T02340040  RH  028%=      5-min Rain = 0
KCH1 171938Z 19004KT 23/04 A2998 RMK A01 T02310038  RH  029%=      5-min Rain = 0
KCH1 171939Z 17006KT 23/04 A2998 RMK A01 T02290039  RH  029%=      5-min Rain = 0
KCH1 171940Z 16005KT 23/04 A2998 RMK A01 T02280039  RH  029%=      5-min Rain = 0
KCH1 171941Z 17007KT 23/04 A2997 RMK A01 T02270039  RH  029%=      5-min Rain = 0
KCH1 171942Z 17007KT 23/04 A2997 RMK A01 T02280040  RH  029%=      5-min Rain = 0
KCH1 171943Z 15006KT 23/04 A2997 RMK A01 T02320042  RH  029%=      5-min Rain = 0
KCH1 171944Z 14010KT 24/04 A2997 RMK A01 T02350041  RH  028%=      5-min Rain = 0
KCH1 171945Z 15008KT 24/04 A2997 RMK A01 T02360041  RH  028%=      5-min Rain = 0
KCH1 171946Z 18007KT 24/04 A2997 RMK A01 T02360040  RH  028%=      5-min Rain = 0
KCH1 171947Z 19004KT 23/04 A2997 RMK A01 T02340040  RH  028%=      5-min Rain = 0
KCH1 171948Z 21004KT 23/04 A2997 RMK A01 T02330040  RH  028%=      5-min Rain = 0
KCH1 171949Z 21003KT 23/04 A2997 RMK A01 T02300039  RH  029%=      5-min Rain = 0
KCH1 171950Z 18006KT 23/04 A2997 RMK A01 T02290041  RH  029%=      5-min Rain = 0
KCH1 171951Z 16005KT 23/04 A2997 RMK A01 T02300040  RH  029%=      5-min Rain = 0
KCH1 171952Z 15009KT 23/04 A2997 RMK A01 T02310043  RH  029%=      5-min Rain = 0
KCH1 171953Z 15006KT 24/04 A2997 RMK A01 T02350040  RH  028%=      5-min Rain = 0
KCH1 171954Z 14006KT 24/04 A2997 RMK A01 T02350040  RH  028%=      5-min Rain = 0
KCH1 171955Z 15005KT 24/04 A2996 RMK A01 T02350040  RH  028%=      5-min Rain = 0
KCH1 171956Z 15005KT 24/04 A2996 RMK A01 T02350039  RH  028%=      5-min Rain = 0
KCH1 171957Z 18007KT 23/04 A2996 RMK A01 T02340040  RH  028%=      5-min Rain = 0
KCH1 171958Z 18006KT 23/04 A2996 RMK A01 T02340039  RH  028%=      5-min Rain = 0
KCH1 171959Z 19004KT 23/04 A2996 RMK A01 T02330039  RH  028%=      5-min Rain = 0
KCH1 172000Z 18003KT 23/04 A2996 RMK A01 T02340038  RH  028%=      5-min Rain = 0
KCH1 172001Z 19002KT 23/04 A2996 RMK A01 T02340038  RH  028%=      5-min Rain = 0
KCH1 172002Z 17004KT 23/04 A2996 RMK A01 T02340040  RH  028%=      5-min Rain = 0
KCH1 172003Z 19004KT 24/04 A2996 RMK A01 T02350041  RH  028%=      5-min Rain = 0
KCH1 172004Z 13003KT 23/04 A2996 RMK A01 T02340041  RH  028%=      5-min Rain = 0
KCH1 172005Z 14005KT 24/04 A2996 RMK A01 T02350042  RH  028%=      5-min Rain = 0
KCH1 172006Z 15007G12KT 24/04 A2996 RMK A01 T02360042  RH  028%=      5-min Rain = 0
KCH1 172007Z 17007KT 24/04 A2996 RMK A01 T02380040  RH  027%=      5-min Rain = 0
KCH1 172008Z 17004KT 24/04 A2996 RMK A01 T02360038  RH  028%=      5-min Rain = 0
KCH1 172009Z 23001KT 23/04 A2996 RMK A01 T02340040  RH  028%=      5-min Rain = 0
KCH1 172010Z 20003KT 23/04 A2996 RMK A01 T02340039  RH  028%=      5-min Rain = 0
KCH1 172011Z 15003KT 24/04 A2996 RMK A01 T02350038  RH  028%=      5-min Rain = 0
KCH1 172012Z 15003KT 24/04 A2996 RMK A01 T02360037  RH  027%=      5-min Rain = 0
KCH1 172013Z 14001KT 24/04 A2996 RMK A01 T02370037  RH  027%=      5-min Rain = 0
KCH1 172014Z 17001KT 24/04 A2996 RMK A01 T02360037  RH  027%=      5-min Rain = 0
KCH1 172015Z 17002KT 24/04 A2996 RMK A01 T02360038  RH  028%=      5-min Rain = 0
KCH1 172016Z 15004KT 24/04 A2996 RMK A01 T02380038  RH  027%=      5-min Rain = 0
KCH1 172017Z 17005KT 24/04 A2996 RMK A01 T02400039  RH  027%=      5-min Rain = 0
KCH1 172018Z 16005KT 24/04 A2996 RMK A01 T02410039  RH  027%=      5-min Rain = 0
KCH1 172019Z 18008KT 24/04 A2996 RMK A01 T02440036  RH  026%=      5-min Rain = 0
KCH1 172020Z 20007KT 24/04 A2996 RMK A01 T02440035  RH  026%=      5-min Rain = 0
KCH1 172021Z 19007KT 24/03 A2996 RMK A01 T02420032  RH  025%=      5-min Rain = 0
KCH1 172022Z 18006KT 24/03 A2996 RMK A01 T02400032  RH  026%=      5-min Rain = 0
KCH1 172023Z 21002KT 24/03 A2996 RMK A01 T02380030  RH  026%=      5-min Rain = 0
KCH1 172024Z 24002KT 24/03 A2996 RMK A01 T02370032  RH  026%=      5-min Rain = 0
KCH1 172025Z 16003KT 24/03 A2996 RMK A01 T02390034  RH  026%=      5-min Rain = 0
KCH1 172026Z 16005KT 24/03 A2996 RMK A01 T02420034  RH  026%=      5-min Rain = 0
KCH1 172027Z 21005KT 25/03 A2995 RMK A01 T02450033  RH  025%=      5-min Rain = 0
KCH1 172028Z 19003KT 24/03 A2995 RMK A01 T02430031  RH  025%=      5-min Rain = 0
KCH1 172029Z 20002KT 24/03 A2995 RMK A01 T02410033  RH  026%=      5-min Rain = 0
KCH1 172030Z 16002KT 24/04 A2995 RMK A01 T02440036  RH  026%=      5-min Rain = 0
KCH1 172031Z 12003KT 25/03 A2995 RMK A01 T02470034  RH  025%=      5-min Rain = 0
KCH1 172032Z 12004G9KT 25/03 A2995 RMK A01 T02460033  RH  025%=      5-min Rain = 0
KCH1 172033Z 16008KT 25/04 A2995 RMK A01 T02450035  RH  026%=      5-min Rain = 0
KCH1 172034Z 15009KT 25/03 A2995 RMK A01 T02470034  RH  025%=      5-min Rain = 0
KCH1 172035Z 15007KT 25/03 A2995 RMK A01 T02470031  RH  024%=      5-min Rain = 0
KCH1 172036Z 14008KT 25/03 A2995 RMK A01 T02450031  RH  025%=      5-min Rain = 0
KCH1 172037Z 13006KT 25/03 A2995 RMK A01 T02450028  RH  024%=      5-min Rain = 0
KCH1 172038Z 11005KT 24/03 A2994 RMK A01 T02420026  RH  024%=      5-min Rain = 0
KCH1 172039Z 13005KT 24/03 A2994 RMK A01 T02420026  RH  025%=      5-min Rain = 0
KCH1 172040Z 13008KT 24/03 A2994 RMK A01 T02440030  RH  025%=      5-min Rain = 0
KCH1 172041Z 12009KT 25/03 A2994 RMK A01 T02460030  RH  024%=      5-min Rain = 0
KCH1 172042Z 12010KT 25/03 A2994 RMK A01 T02450030  RH  025%=      5-min Rain = 0
KCH1 172043Z 12009KT 24/03 A2994 RMK A01 T02440029  RH  025%=      5-min Rain = 0
KCH1 172044Z 10007KT 24/03 A2994 RMK A01 T02420028  RH  025%=      5-min Rain = 0
KCH1 172045Z 12005KT 24/03 A2994 RMK A01 T02420030  RH  025%=      5-min Rain = 0
KCH1 172046Z 15004KT 24/03 A2994 RMK A01 T02440029  RH  025%=      5-min Rain = 0
KCH1 172047Z 15004KT 25/03 A2994 RMK A01 T02450030  RH  025%=      5-min Rain = 0
KCH1 172048Z 12006KT 25/03 A2994 RMK A01 T02470031  RH  025%=      5-min Rain = 0
KCH1 172049Z 12005KT 25/03 A2994 RMK A01 T02470030  RH  024%=      5-min Rain = 0
KCH1 172050Z 13006KT 25/03 A2994 RMK A01 T02480032  RH  025%=      5-min Rain = 0
KCH1 172051Z 14006KT 25/03 A2994 RMK A01 T02490027  RH  024%=      5-min Rain = 0
KCH1 172052Z 15008KT 25/03 A2994 RMK A01 T02470027  RH  024%=      5-min Rain = 0
KCH1 172053Z 16006KT 25/03 A2994 RMK A01 T02460026  RH  024%=      5-min Rain = 0
KCH1 172054Z 15007KT 25/03 A2994 RMK A01 T02460027  RH  024%=      5-min Rain = 0
KCH1 172055Z 15007KT 25/03 A2994 RMK A01 T02490029  RH  024%=      5-min Rain = 0
KCH1 172056Z 18007KT 25/03 A2994 RMK A01 T02520029  RH  023%=      5-min Rain = 0
KCH1 172057Z 18006KT 25/03 A2994 RMK A01 T02520029  RH  023%=      5-min Rain = 0
KCH1 172058Z 17007KT 25/03 A2994 RMK A01 T02520028  RH  023%=      5-min Rain = 0
KCH1 172059Z 18004KT 25/02 A2994 RMK A01 T02490024  RH  023%=      5-min Rain = 0
KCH1 172100Z 17005KT 25/03 A2994 RMK A01 T02470027  RH  024%=      5-min Rain = 0
KCH1 172101Z 15006KT 25/03 A2994 RMK A01 T02480025  RH  023%=      5-min Rain = 0
KCH1 172102Z 14004KT 25/02 A2994 RMK A01 T02480022  RH  023%=      5-min Rain = 0
KCH1 172103Z 12006KT 25/02 A2994 RMK A01 T02470023  RH  023%=      5-min Rain = 0
KCH1 172104Z 14007KT 25/02 A2994 RMK A01 T02480021  RH  023%=      5-min Rain = 0
KCH1 172105Z 16006KT 25/02 A2994 RMK A01 T02470022  RH  023%=      5-min Rain = 0
KCH1 172106Z 14005KT 25/02 A2994 RMK A01 T02470022  RH  023%=      5-min Rain = 0
KCH1 172107Z 13006KT 25/02 A2994 RMK A01 T02470023  RH  023%=      5-min Rain = 0
KCH1 172108Z 16004KT 25/02 A2994 RMK A01 T02470024  RH  023%=      5-min Rain = 0
KCH1 172109Z 13006KT 25/03 A2994 RMK A01 T02500027  RH  023%=      5-min Rain = 0
KCH1 172110Z 14009KT 25/02 A2994 RMK A01 T02520024  RH  023%=      5-min Rain = 0
KCH1 172111Z 13007KT 25/02 A2994 RMK A01 T02500023  RH  023%=      5-min Rain = 0
KCH1 172112Z 15008KT 25/02 A2994 RMK A01 T02500022  RH  023%=      5-min Rain = 0
KCH1 172113Z 12006KT 25/02 A2994 RMK A01 T02490021  RH  023%=      5-min Rain = 0
KCH1 172114Z 12005KT 25/02 A2994 RMK A01 T02490022  RH  023%=      5-min Rain = 0
KCH1 172115Z 14009KT 25/02 A2994 RMK A01 T02490020  RH  022%=      5-min Rain = 0
KCH1 172116Z 14009KT 25/02 A2994 RMK A01 T02490016  RH  022%=      5-min Rain = 0
KCH1 172117Z 14007KT 25/02 A2993 RMK A01 T02490017  RH  022%=      5-min Rain = 0
KCH1 172118Z 12008KT 25/02 A2993 RMK A01 T02480018  RH  022%=      5-min Rain = 0
KCH1 172119Z 11009KT 25/02 A2993 RMK A01 T02490020  RH  022%=      5-min Rain = 0
KCH1 172120Z 12008KT 25/02 A2993 RMK A01 T02500020  RH  022%=      5-min Rain = 0
KCH1 172121Z 16007KT 25/02 A2993 RMK A01 T02500022  RH  023%=      5-min Rain = 0
KCH1 172122Z 17008KT 25/02 A2993 RMK A01 T02500021  RH  022%=      5-min Rain = 0
KCH1 172123Z 17010KT 25/02 A2993 RMK A01 T02500022  RH  023%=      5-min Rain = 0
KCH1 172124Z 17010KT 25/02 A2993 RMK A01 T02490019  RH  022%=      5-min Rain = 0
KCH1 172125Z 17007KT 25/02 A2993 RMK A01 T02480019  RH  022%=      5-min Rain = 0
KCH1 172126Z 16006KT 25/02 A2993 RMK A01 T02470019  RH  022%=      5-min Rain = 0
KCH1 172127Z 17006KT 25/02 A2993 RMK A01 T02480020  RH  023%=      5-min Rain = 0
KCH1 172128Z 15007KT 25/02 A2993 RMK A01 T02490019  RH  022%=      5-min Rain = 0
KCH1 172129Z 14009KT 25/02 A2993 RMK A01 T02500019  RH  022%=      5-min Rain = 0
KCH1 172130Z 16005KT 25/02 A2993 RMK A01 T02500021  RH  022%=      5-min Rain = 0
KCH1 172131Z 14007KT 25/02 A2993 RMK A01 T02520022  RH  022%=      5-min Rain = 0
KCH1 172132Z 13007KT 25/02 A2993 RMK A01 T02530021  RH  022%=      5-min Rain = 0
KCH1 172133Z 13008KT 25/02 A2993 RMK A01 T02520020  RH  022%=      5-min Rain = 0
KCH1 172134Z 12008KT 25/02 A2993 RMK A01 T02510020  RH  022%=      5-min Rain = 0
KCH1 172135Z 14009KT 25/02 A2993 RMK A01 T02490021  RH  022%=      5-min Rain = 0
KCH1 172136Z 14009KT 25/02 A2993 RMK A01 T02500019  RH  022%=      5-min Rain = 0
KCH1 172137Z 16009KT 25/02 A2993 RMK A01 T02490018  RH  022%=      5-min Rain = 0
KCH1 172138Z 16009KT 25/02 A2993 RMK A01 T02490020  RH  022%=      5-min Rain = 0
KCH1 172139Z 16008KT 25/02 A2993 RMK A01 T02500018  RH  022%=      5-min Rain = 0
KCH1 172140Z 16008KT 25/02 A2993 RMK A01 T02490017  RH  022%=      5-min Rain = 0
KCH1 172141Z 14006KT 25/02 A2993 RMK A01 T02480017  RH  022%=      5-min Rain = 0
KCH1 172142Z 17008KT 25/02 A2993 RMK A01 T02490017  RH  022%=      5-min Rain = 0
KCH1 172143Z 16008KT 25/02 A2993 RMK A01 T02500019  RH  022%=      5-min Rain = 0
KCH1 172144Z 15009KT 25/02 A2993 RMK A01 T02520019  RH  022%=      5-min Rain = 0
KCH1 172145Z 14009KT 25/02 A2993 RMK A01 T02520019  RH  022%=      5-min Rain = 0
KCH1 172151Z 13006KT 25/02 A2993 RMK A01 T02500022  RH  023%=      5-min Rain = 0
KCH1 172152Z 15006KT 25/02 A2993 RMK A01 T02500023  RH  023%=      5-min Rain = 0
KCH1 172153Z 16009KT 25/02 A2993 RMK A01 T02520024  RH  023%=      5-min Rain = 0
KCH1 172154Z 15010KT 25/02 A2993 RMK A01 T02530024  RH  023%=      5-min Rain = 0
KCH1 172155Z 14011KT 25/02 A2993 RMK A01 T02520023  RH  023%=      5-min Rain = 0
KCH1 172156Z 14010KT 25/02 A2993 RMK A01 T02510023  RH  023%=      5-min Rain = 0
KCH1 172157Z 16009KT 25/02 A2993 RMK A01 T02500024  RH  023%=      5-min Rain = 0
KCH1 172158Z 16009KT 25/02 A2993 RMK A01 T02500024  RH  023%=      5-min Rain = 0
KCH1 172159Z 16009KT 25/02 A2993 RMK A01 T02490024  RH  023%=      5-min Rain = 0
KCH1 172200Z 15009KT 25/03 A2993 RMK A01 T02500025  RH  023%=      5-min Rain = 0
KCH1 172201Z 14009KT 25/02 A2993 RMK A01 T02490024  RH  023%=      5-min Rain = 0
KCH1 172202Z 12007KT 25/03 A2993 RMK A01 T02490025  RH  023%=      5-min Rain = 0
KCH1 172203Z 13007KT 25/03 A2992 RMK A01 T02490025  RH  023%=      5-min Rain = 0
KCH1 172204Z 12008G14KT 25/03 A2992 RMK A01 T02490026  RH  023%=      5-min Rain = 0
KCH1 172205Z 13012KT 25/02 A2992 RMK A01 T02490024  RH  023%=      5-min Rain = 0
KCH1 172206Z 13012KT 25/02 A2992 RMK A01 T02470023  RH  023%=      5-min Rain = 0
KCH1 172207Z 13010KT 25/02 A2992 RMK A01 T02460023  RH  023%=      5-min Rain = 0
KCH1 172208Z 14008KT 25/02 A2992 RMK A01 T02450024  RH  024%=      5-min Rain = 0
KCH1 172209Z 13005KT 25/02 A2992 RMK A01 T02460024  RH  023%=      5-min Rain = 0
KCH1 172210Z 12007KT 25/03 A2992 RMK A01 T02480026  RH  023%=      5-min Rain = 0
KCH1 172211Z 13010KT 25/02 A2992 RMK A01 T02490023  RH  023%=      5-min Rain = 0
KCH1 172212Z 14011KT 25/02 A2992 RMK A01 T02480022  RH  023%=      5-min Rain = 0
KCH1 172213Z 15011KT 25/02 A2992 RMK A01 T02460023  RH  023%=      5-min Rain = 0
KCH1 172214Z 15009KT 25/02 A2992 RMK A01 T02470022  RH  023%=      5-min Rain = 0
KCH1 172215Z 15008KT 25/02 A2992 RMK A01 T02460023  RH  023%=      5-min Rain = 0
KCH1 172216Z 16008KT 25/02 A2992 RMK A01 T02460023  RH  023%=      5-min Rain = 0
KCH1 172217Z 15010KT 25/02 A2992 RMK A01 T02460024  RH  023%=      5-min Rain = 0
KCH1 172218Z 14009KT 25/02 A2992 RMK A01 T02470023  RH  023%=      5-min Rain = 0
KCH1 172219Z 15006KT 25/02 A2992 RMK A01 T02470024  RH  023%=      5-min Rain = 0
KCH1 172220Z 11008KT 25/02 A2992 RMK A01 T02480024  RH  023%=      5-min Rain = 0
KCH1 172221Z 11008KT 25/02 A2992 RMK A01 T02490021  RH  023%=      5-min Rain = 0
KCH1 172222Z 12008KT 25/02 A2992 RMK A01 T02460020  RH  023%=      5-min Rain = 0
KCH1 172223Z 15007KT 25/02 A2992 RMK A01 T02450021  RH  023%=      5-min Rain = 0
KCH1 172224Z 16010G15KT 25/02 A2992 RMK A01 T02460022  RH  023%=      5-min Rain = 0
KCH1 172225Z 15010KT 25/02 A2992 RMK A01 T02480020  RH  023%=      5-min Rain = 0
KCH1 172226Z 16010KT 25/02 A2992 RMK A01 T02470019  RH  023%=      5-min Rain = 0
KCH1 172227Z 15010KT 25/02 A2992 RMK A01 T02460020  RH  023%=      5-min Rain = 0
KCH1 172228Z 15009KT 25/02 A2992 RMK A01 T02460020  RH  023%=      5-min Rain = 0
KCH1 172229Z 14008KT 25/02 A2992 RMK A01 T02460020  RH  023%=      5-min Rain = 0
KCH1 172230Z 15007KT 25/02 A2992 RMK A01 T02460021  RH  023%=      5-min Rain = 0
KCH1 172231Z 15007KT 25/02 A2992 RMK A01 T02460020  RH  023%=      5-min Rain = 0
KCH1 172232Z 13005KT 25/02 A2992 RMK A01 T02470020  RH  023%=      5-min Rain = 0
KCH1 172233Z 11009KT 25/02 A2992 RMK A01 T02460020  RH  023%=      5-min Rain = 0
KCH1 172234Z 12009KT 25/02 A2991 RMK A01 T02460019  RH  023%=      5-min Rain = 0
KCH1 172235Z 15007KT 25/02 A2991 RMK A01 T02450020  RH  023%=      5-min Rain = 0
KCH1 172236Z 15009KT 25/02 A2991 RMK A01 T02450022  RH  023%=      5-min Rain = 0
KCH1 172237Z 16008KT 25/02 A2991 RMK A01 T02470020  RH  023%=      5-min Rain = 0
KCH1 172238Z 16006KT 25/02 A2991 RMK A01 T02460021  RH  023%=      5-min Rain = 0
KCH1 172239Z 15007KT 25/02 A2991 RMK A01 T02460022  RH  023%=      5-min Rain = 0
KCH1 172240Z 14008KT 25/02 A2991 RMK A01 T02460023  RH  023%=      5-min Rain = 0
KCH1 172241Z 15010KT 25/02 A2991 RMK A01 T02460021  RH  023%=      5-min Rain = 0
KCH1 172242Z 14010KT 25/02 A2991 RMK A01 T02450022  RH  023%=      5-min Rain = 0
KCH1 172243Z 15010KT 24/02 A2991 RMK A01 T02440021  RH  023%=      5-min Rain = 0
KCH1 172244Z 14010KT 24/02 A2991 RMK A01 T02420021  RH  023%=      5-min Rain = 0
KCH1 172245Z 13008KT 24/02 A2991 RMK A01 T02410021  RH  024%=      5-min Rain = 0
KCH1 172246Z 14009KT 24/02 A2991 RMK A01 T02410022  RH  024%=      5-min Rain = 0
KCH1 172247Z 13011KT 24/02 A2991 RMK A01 T02410022  RH  024%=      5-min Rain = 0
KCH1 172248Z 13011KT 24/02 A2991 RMK A01 T02410022  RH  024%=      5-min Rain = 0
KCH1 172249Z 13009KT 24/02 A2991 RMK A01 T02410023  RH  024%=      5-min Rain = 0
KCH1 172250Z 14010KT 24/02 A2991 RMK A01 T02400024  RH  024%=      5-min Rain = 0
KCH1 172251Z 13009KT 24/02 A2991 RMK A01 T02410024  RH  024%=      5-min Rain = 0
KCH1 172252Z 14011KT 24/02 A2991 RMK A01 T02410024  RH  024%=      5-min Rain = 0
KCH1 172253Z 14011KT 24/02 A2991 RMK A01 T02400024  RH  024%=      5-min Rain = 0
KCH1 172254Z 13012KT 24/02 A2991 RMK A01 T02390024  RH  024%=      5-min Rain = 0
KCH1 172255Z 15011KT 24/02 A2991 RMK A01 T02380024  RH  025%=      5-min Rain = 0
KCH1 172256Z 14011KT 24/02 A2991 RMK A01 T02380024  RH  025%=      5-min Rain = 0
KCH1 172257Z 15010KT 24/03 A2991 RMK A01 T02380025  RH  025%=      5-min Rain = 0
KCH1 172258Z 15009KT 24/02 A2991 RMK A01 T02380024  RH  025%=      5-min Rain = 0
KCH1 172259Z 16009KT 24/02 A2991 RMK A01 T02380024  RH  025%=      5-min Rain = 0
KCH1 172300Z 15007KT 24/02 A2991 RMK A01 T02380024  RH  025%=      5-min Rain = 0
KCH1 172301Z 13009KT 24/02 A2991 RMK A01 T02380024  RH  025%=      5-min Rain = 0
KCH1 172302Z 13006KT 24/03 A2991 RMK A01 T02380025  RH  025%=      5-min Rain = 0
KCH1 172303Z 13010KT 24/03 A2991 RMK A01 T02380025  RH  025%=      5-min Rain = 0
KCH1 172304Z 14011KT 24/02 A2991 RMK A01 T02380023  RH  024%=      5-min Rain = 0
KCH1 172305Z 13009KT 24/02 A2991 RMK A01 T02370022  RH  024%=      5-min Rain = 0
KCH1 172306Z 13010KT 24/02 A2991 RMK A01 T02370021  RH  024%=      5-min Rain = 0
KCH1 172307Z 13010KT 24/02 A2991 RMK A01 T02360021  RH  024%=      5-min Rain = 0
KCH1 172308Z 13009KT 24/02 A2991 RMK A01 T02360020  RH  024%=      5-min Rain = 0
KCH1 172309Z 14009KT 24/02 A2991 RMK A01 T02350020  RH  024%=      5-min Rain = 0
KCH1 172310Z 13009KT 24/02 A2991 RMK A01 T02350020  RH  024%=      5-min Rain = 0
KCH1 172311Z 14011KT 24/02 A2991 RMK A01 T02350020  RH  024%=      5-min Rain = 0
KCH1 172312Z 13011KT 23/02 A2991 RMK A01 T02340020  RH  024%=      5-min Rain = 0
KCH1 172313Z 12009KT 23/02 A2991 RMK A01 T02340020  RH  025%=      5-min Rain = 0
KCH1 172314Z 14008KT 23/02 A2991 RMK A01 T02330021  RH  025%=      5-min Rain = 0
KCH1 172315Z 14009KT 23/02 A2991 RMK A01 T02340022  RH  025%=      5-min Rain = 0
KCH1 172316Z 15008KT 23/02 A2991 RMK A01 T02330021  RH  025%=      5-min Rain = 0
KCH1 172317Z 14008KT 23/02 A2991 RMK A01 T02340022  RH  025%=      5-min Rain = 0
KCH1 172318Z 15007KT 23/02 A2991 RMK A01 T02330022  RH  025%=      5-min Rain = 0
KCH1 172319Z 15010KT 23/02 A2991 RMK A01 T02330022  RH  025%=      5-min Rain = 0
KCH1 172320Z 14010KT 23/02 A2991 RMK A01 T02330021  RH  025%=      5-min Rain = 0
KCH1 172321Z 14009KT 23/02 A2991 RMK A01 T02320020  RH  025%=      5-min Rain = 0
KCH1 172322Z 14010KT 23/02 A2991 RMK A01 T02320021  RH  025%=      5-min Rain = 0
KCH1 172323Z 14010KT 23/02 A2991 RMK A01 T02310021  RH  025%=      5-min Rain = 0
KCH1 172324Z 14008KT 23/02 A2991 RMK A01 T02310021  RH  025%=      5-min Rain = 0
KCH1 172325Z 12008KT 23/02 A2991 RMK A01 T02310022  RH  025%=      5-min Rain = 0
KCH1 172326Z 13009KT 23/02 A2991 RMK A01 T02300021  RH  025%=      5-min Rain = 0
KCH1 172327Z 14010KT 23/02 A2991 RMK A01 T02290021  RH  025%=      5-min Rain = 0
KCH1 172328Z 13009KT 23/02 A2991 RMK A01 T02290020  RH  025%=      5-min Rain = 0
KCH1 172329Z 12006KT 23/02 A2991 RMK A01 T02280021  RH  026%=      5-min Rain = 0
KCH1 172330Z 12006KT 23/02 A2991 RMK A01 T02270021  RH  026%=      5-min Rain = 0
KCH1 172331Z 13007KT 23/02 A2991 RMK A01 T02270022  RH  026%=      5-min Rain = 0
KCH1 172332Z 12007KT 23/02 A2991 RMK A01 T02250020  RH  026%=      5-min Rain = 0
KCH1 172333Z 12009KT 23/02 A2991 RMK A01 T02250020  RH  026%=      5-min Rain = 0
KCH1 172334Z 13008KT 22/02 A2991 RMK A01 T02230019  RH  026%=      5-min Rain = 0
KCH1 172335Z 12008KT 22/02 A2991 RMK A01 T02230019  RH  026%=      5-min Rain = 0
KCH1 172336Z 12009KT 22/02 A2991 RMK A01 T02230018  RH  026%=      5-min Rain = 0
KCH1 172337Z 12009KT 22/02 A2991 RMK A01 T02220017  RH  026%=      5-min Rain = 0
KCH1 172338Z 12008KT 22/02 A2991 RMK A01 T02210017  RH  026%=      5-min Rain = 0
KCH1 172339Z 12008KT 22/02 A2991 RMK A01 T02210017  RH  026%=      5-min Rain = 0
KCH1 172340Z 12008KT 22/02 A2991 RMK A01 T02210017  RH  026%=      5-min Rain = 0
KCH1 172341Z 12007KT 22/02 A2991 RMK A01 T02210017  RH  026%=      5-min Rain = 0
KCH1 172342Z 12007KT 22/02 A2991 RMK A01 T02200018  RH  026%=      5-min Rain = 0
KCH1 172343Z 12008KT 22/02 A2991 RMK A01 T02190018  RH  026%=      5-min Rain = 0
KCH1 172344Z 12006KT 22/02 A2991 RMK A01 T02180017  RH  026%=      5-min Rain = 0
KCH1 172345Z 12006KT 22/02 A2991 RMK A01 T02180018  RH  027%=      5-min Rain = 0
KCH1 172346Z 12006KT 22/02 A2991 RMK A01 T02170018  RH  027%=      5-min Rain = 0
KCH1 172347Z 12007KT 22/02 A2991 RMK A01 T02160018  RH  027%=      5-min Rain = 0
KCH1 172348Z 12006KT 22/02 A2991 RMK A01 T02160018  RH  027%=      5-min Rain = 0
KCH1 172349Z 12006KT 22/02 A2991 RMK A01 T02150018  RH  027%=      5-min Rain = 0
KCH1 172350Z 12006KT 21/02 A2991 RMK A01 T02140018  RH  027%=      5-min Rain = 0
KCH1 172351Z 12005KT 21/02 A2991 RMK A01 T02140019  RH  028%=      5-min Rain = 0
KCH1 172352Z 12006KT 21/02 A2991 RMK A01 T02130019  RH  028%=      5-min Rain = 0
KCH1 172353Z 12006KT 21/02 A2991 RMK A01 T02120020  RH  028%=      5-min Rain = 0
KCH1 172354Z 12006KT 21/02 A2991 RMK A01 T02110020  RH  028%=      5-min Rain = 0
KCH1 172355Z 12006KT 21/02 A2991 RMK A01 T02110020  RH  028%=      5-min Rain = 0
KCH1 172356Z 13006KT 21/02 A2991 RMK A01 T02100021  RH  028%=      5-min Rain = 0
KCH1 172357Z 13007KT 21/02 A2991 RMK A01 T02100021  RH  029%=      5-min Rain = 0
KCH1 172358Z 13007KT 21/02 A2991 RMK A01 T02100022  RH  029%=      5-min Rain = 0
KCH1 172359Z 13007KT 21/02 A2991 RMK A01 T02090022  RH  029%=      5-min Rain = 0
KCH1 180000Z 12007KT 21/02 A2991 RMK A01 T02090022  RH  029%=      5-min Rain = 0
KCH1 180001Z 13007KT 21/02 A2991 RMK A01 T02090022  RH  029%=      5-min Rain = 0
KCH1 180002Z 13006KT 21/02 A2991 RMK A01 T02080023  RH  029%=      5-min Rain = 0
KCH1 180003Z 13007KT 21/02 A2991 RMK A01 T02080023  RH  029%=      5-min Rain = 0
KCH1 180004Z 13007KT 21/02 A2991 RMK A01 T02070023  RH  030%=      5-min Rain = 0
KCH1 180005Z 13007KT 21/02 A2991 RMK A01 T02060023  RH  030%=      5-min Rain = 0
KCH1 180006Z 13007KT 21/02 A2991 RMK A01 T02050023  RH  030%=      5-min Rain = 0
KCH1 180007Z 13007KT 20/02 A2991 RMK A01 T02040023  RH  030%=      5-min Rain = 0
KCH1 180008Z 13007KT 20/02 A2991 RMK A01 T02040024  RH  030%=      5-min Rain = 0
KCH1 180009Z 13007KT 20/03 A2991 RMK A01 T02040025  RH  030%=      5-min Rain = 0
KCH1 180010Z 13007KT 20/03 A2991 RMK A01 T02030025  RH  031%=      5-min Rain = 0
KCH1 180011Z 13007KT 20/03 A2991 RMK A01 T02020025  RH  031%=      5-min Rain = 0
KCH1 180012Z 13007KT 20/03 A2991 RMK A01 T02020025  RH  031%=      5-min Rain = 0
KCH1 180013Z 13007KT 20/03 A2991 RMK A01 T02020025  RH  031%=      5-min Rain = 0
KCH1 180014Z 13007KT 20/03 A2991 RMK A01 T02020026  RH  031%=      5-min Rain = 0
KCH1 180015Z 13007KT 20/03 A2991 RMK A01 T02010026  RH  031%=      5-min Rain = 0
KCH1 180016Z 13007KT 20/03 A2991 RMK A01 T02010026  RH  031%=      5-min Rain = 0
KCH1 180017Z 13006KT 20/03 A2991 RMK A01 T02010026  RH  031%=      5-min Rain = 0
KCH1 180018Z 13007KT 20/03 A2991 RMK A01 T02000026  RH  031%=      5-min Rain = 0
KCH1 180019Z 13007KT 20/03 A2991 RMK A01 T02000026  RH  032%=      5-min Rain = 0
KCH1 180020Z 13006KT 20/03 A2991 RMK A01 T01990026  RH  032%=      5-min Rain = 0
KCH1 180021Z 13007KT 20/03 A2991 RMK A01 T01990027  RH  032%=      5-min Rain = 0
KCH1 180022Z 13007KT 20/03 A2991 RMK A01 T01980027  RH  032%=      5-min Rain = 0
KCH1 180023Z 13008KT 20/03 A2991 RMK A01 T01980027  RH  032%=      5-min Rain = 0
KCH1 180024Z 13007KT 20/03 A2991 RMK A01 T01970027  RH  032%=      5-min Rain = 0
KCH1 180025Z 13007KT 20/03 A2991 RMK A01 T01970028  RH  032%=      5-min Rain = 0
KCH1 180026Z 13007KT 20/03 A2991 RMK A01 T01970028  RH  033%=      5-min Rain = 0
KCH1 180027Z 13007KT 20/03 A2991 RMK A01 T01960028  RH  033%=      5-min Rain = 0
KCH1 180028Z 13007KT 20/03 A2991 RMK A01 T01960028  RH  033%=      5-min Rain = 0
KCH1 180029Z 13007KT 20/03 A2991 RMK A01 T01950028  RH  033%=      5-min Rain = 0
KCH1 180030Z 13007KT 20/03 A2991 RMK A01 T01950028  RH  033%=      5-min Rain = 0
KCH1 180031Z 13007KT 20/03 A2991 RMK A01 T01950028  RH  033%=      5-min Rain = 0
KCH1 180032Z 13007KT 20/03 A2991 RMK A01 T01950029  RH  033%=      5-min Rain = 0
KCH1 180033Z 13006KT 19/03 A2991 RMK A01 T01940028  RH  033%=      5-min Rain = 0
KCH1 180034Z 13006KT 19/03 A2991 RMK A01 T01940029  RH  033%=      5-min Rain = 0
KCH1 180035Z 13007KT 19/03 A2991 RMK A01 T01930029  RH  033%=      5-min Rain = 0
KCH1 180036Z 13006KT 19/03 A2991 RMK A01 T01930029  RH  034%=      5-min Rain = 0
KCH1 180037Z 13007KT 19/03 A2991 RMK A01 T01930029  RH  034%=      5-min Rain = 0
KCH1 180038Z 13007KT 19/03 A2991 RMK A01 T01930029  RH  034%=      5-min Rain = 0
KCH1 180039Z 13007KT 19/03 A2991 RMK A01 T01930029  RH  034%=      5-min Rain = 0
KCH1 180040Z 13007KT 19/03 A2991 RMK A01 T01920029  RH  034%=      5-min Rain = 0
KCH1 180041Z 12007KT 19/03 A2991 RMK A01 T01920030  RH  034%=      5-min Rain = 0
KCH1 180042Z 12007KT 19/03 A2991 RMK A01 T01910029  RH  034%=      5-min Rain = 0
KCH1 180043Z 12006KT 19/03 A2991 RMK A01 T01900030  RH  034%=      5-min Rain = 0
KCH1 180044Z 12007KT 19/03 A2991 RMK A01 T01890030  RH  035%=      5-min Rain = 0
KCH1 180045Z 13006KT 19/03 A2991 RMK A01 T01890030  RH  035%=      5-min Rain = 0
KCH1 180046Z 13006KT 19/03 A2991 RMK A01 T01880030  RH  035%=      5-min Rain = 0
KCH1 180047Z 13006KT 19/03 A2991 RMK A01 T01880029  RH  035%=      5-min Rain = 0
KCH1 180048Z 13007KT 19/03 A2991 RMK A01 T01870030  RH  035%=      5-min Rain = 0
KCH1 180049Z 13007KT 19/03 A2991 RMK A01 T01870030  RH  035%=      5-min Rain = 0
KCH1 180050Z 13006KT 19/03 A2991 RMK A01 T01870030  RH  035%=      5-min Rain = 0
KCH1 180051Z 13007KT 19/03 A2991 RMK A01 T01860030  RH  035%=      5-min Rain = 0
KCH1 180052Z 13006KT 19/03 A2991 RMK A01 T01860029  RH  035%=      5-min Rain = 0
KCH1 180053Z 13006KT 19/03 A2991 RMK A01 T01870030  RH  035%=      5-min Rain = 0
KCH1 180054Z 13006KT 19/03 A2991 RMK A01 T01850029  RH  035%=      5-min Rain = 0
KCH1 180055Z 13006KT 19/03 A2991 RMK A01 T01850029  RH  035%=      5-min Rain = 0
KCH1 180056Z 13006KT 19/03 A2991 RMK A01 T01850029  RH  035%=      5-min Rain = 0
KCH1 180057Z 13005KT 19/03 A2991 RMK A01 T01850029  RH  035%=      5-min Rain = 0
KCH1 180058Z 13006KT 19/03 A2991 RMK A01 T01850029  RH  035%=      5-min Rain = 0
KCH1 180059Z 13006KT 19/03 A2991 RMK A01 T01850028  RH  035%=      5-min Rain = 0
KCH1 180100Z 14006KT 19/03 A2991 RMK A01 T01860028  RH  035%=      5-min Rain = 0
KCH1 180101Z 13005KT 19/03 A2991 RMK A01 T01860028  RH  035%=      5-min Rain = 0
KCH1 180102Z 13006KT 19/03 A2991 RMK A01 T01860028  RH  035%=      5-min Rain = 0
KCH1 180103Z 14006KT 19/03 A2991 RMK A01 T01860029  RH  035%=      5-min Rain = 0
KCH1 180104Z 13005KT 19/03 A2991 RMK A01 T01850028  RH  035%=      5-min Rain = 0
KCH1 180105Z 13005KT 19/03 A2991 RMK A01 T01850028  RH  035%=      5-min Rain = 0
KCH1 180106Z 14005KT 19/03 A2991 RMK A01 T01850028  RH  035%=      5-min Rain = 0
KCH1 180107Z 14005KT 19/03 A2991 RMK A01 T01850029  RH  035%=      5-min Rain = 0
KCH1 180108Z 13005KT 19/03 A2991 RMK A01 T01850028  RH  035%=      5-min Rain = 0
KCH1 180109Z 13005KT 18/03 A2991 RMK A01 T01840028  RH  035%=      5-min Rain = 0
KCH1 180110Z 13005KT 18/03 A2992 RMK A01 T01840028  RH  035%=      5-min Rain = 0
KCH1 180111Z 13005KT 18/03 A2992 RMK A01 T01840028  RH  035%=      5-min Rain = 0
KCH1 180112Z 13005KT 18/03 A2992 RMK A01 T01840028  RH  035%=      5-min Rain = 0
KCH1 180113Z 13006KT 18/03 A2992 RMK A01 T01840028  RH  035%=      5-min Rain = 0
KCH1 180114Z 13005KT 18/03 A2992 RMK A01 T01830028  RH  035%=      5-min Rain = 0
KCH1 180115Z 13006KT 18/03 A2992 RMK A01 T01820027  RH  035%=      5-min Rain = 0
KCH1 180116Z 13005KT 18/03 A2992 RMK A01 T01820027  RH  036%=      5-min Rain = 0
KCH1 180117Z 12004KT 18/03 A2992 RMK A01 T01810027  RH  036%=      5-min Rain = 0
KCH1 180118Z 12005KT 18/03 A2992 RMK A01 T01800027  RH  036%=      5-min Rain = 0
KCH1 180119Z 12005KT 18/03 A2992 RMK A01 T01800027  RH  036%=      5-min Rain = 0
KCH1 180120Z 12006KT 18/03 A2992 RMK A01 T01790026  RH  036%=      5-min Rain = 0
KCH1 180121Z 12006KT 18/03 A2992 RMK A01 T01790025  RH  036%=      5-min Rain = 0
KCH1 180122Z 12006KT 18/02 A2992 RMK A01 T01790024  RH  036%=      5-min Rain = 0
KCH1 180123Z 12007KT 18/02 A2992 RMK A01 T01780024  RH  036%=      5-min Rain = 0
KCH1 180124Z 12006KT 18/02 A2992 RMK A01 T01780024  RH  036%=      5-min Rain = 0
KCH1 180125Z 12005KT 18/02 A2992 RMK A01 T01770023  RH  036%=      5-min Rain = 0
KCH1 180126Z 12005KT 18/02 A2992 RMK A01 T01760023  RH  036%=      5-min Rain = 0
KCH1 180127Z 12005KT 18/02 A2992 RMK A01 T01760023  RH  036%=      5-min Rain = 0
KCH1 180128Z 12005KT 18/02 A2992 RMK A01 T01760023  RH  036%=      5-min Rain = 0
KCH1 180129Z 12005KT 18/02 A2992 RMK A01 T01750022  RH  036%=      5-min Rain = 0
KCH1 180130Z 12006KT 17/02 A2992 RMK A01 T01740022  RH  036%=      5-min Rain = 0
KCH1 180131Z 12006KT 17/02 A2992 RMK A01 T01740021  RH  036%=      5-min Rain = 0
KCH1 180132Z 12008KT 17/02 A2992 RMK A01 T01740019  RH  035%=      5-min Rain = 0
KCH1 180133Z 12006KT 18/02 A2992 RMK A01 T01750018  RH  035%=      5-min Rain = 0
KCH1 180134Z 12008KT 18/02 A2992 RMK A01 T01750018  RH  035%=      5-min Rain = 0
KCH1 180135Z 12007KT 18/02 A2992 RMK A01 T01760016  RH  034%=      5-min Rain = 0
KCH1 180136Z 13007KT 18/02 A2992 RMK A01 T01750015  RH  034%=      5-min Rain = 0
KCH1 180137Z 13008KT 18/01 A2992 RMK A01 T01750014  RH  034%=      5-min Rain = 0
KCH1 180138Z 12008KT 18/01 A2992 RMK A01 T01750012  RH  033%=      5-min Rain = 0
KCH1 180139Z 13008KT 18/01 A2992 RMK A01 T01760011  RH  033%=      5-min Rain = 0
KCH1 180140Z 13008KT 18/01 A2992 RMK A01 T01760010  RH  033%=      5-min Rain = 0
KCH1 180141Z 13008KT 18/01 A2992 RMK A01 T01760010  RH  032%=      5-min Rain = 0
KCH1 180142Z 13009KT 18/01 A2992 RMK A01 T01760010  RH  033%=      5-min Rain = 0
KCH1 180143Z 13007KT 18/01 A2992 RMK A01 T01760008  RH  032%=      5-min Rain = 0
KCH1 180144Z 13007KT 18/01 A2992 RMK A01 T01750008  RH  032%=      5-min Rain = 0
KCH1 180145Z 13007KT 18/01 A2992 RMK A01 T01760008  RH  032%=      5-min Rain = 0
KCH1 180146Z 12007KT 18/01 A2992 RMK A01 T01750007  RH  032%=      5-min Rain = 0
KCH1 180147Z 13007KT 18/01 A2991 RMK A01 T01750007  RH  032%=      5-min Rain = 0
KCH1 180148Z 13008KT 17/01 A2992 RMK A01 T01740006  RH  032%=      5-min Rain = 0
KCH1 180149Z 12007KT 17/01 A2992 RMK A01 T01740005  RH  032%=      5-min Rain = 0
KCH1 180150Z 12007KT 17/01 A2992 RMK A01 T01740006  RH  032%=      5-min Rain = 0
KCH1 180151Z 12007KT 17/01 A2992 RMK A01 T01740005  RH  032%=      5-min Rain = 0
KCH1 180152Z 12007KT 17/01 A2992 RMK A01 T01730005  RH  032%=      5-min Rain = 0
KCH1 180153Z 12006KT 17/01 A2992 RMK A01 T01720005  RH  032%=      5-min Rain = 0
KCH1 180154Z 12006KT 17/00 A2992 RMK A01 T01710003  RH  032%=      5-min Rain = 0
KCH1 180155Z 13006KT 17/00 A2992 RMK A01 T01710003  RH  032%=      5-min Rain = 0
KCH1 180156Z 12006KT 17/00 A2992 RMK A01 T01710003  RH  032%=      5-min Rain = 0
KCH1 180157Z 12007KT 17/00 A2992 RMK A01 T01710003  RH  032%=      5-min Rain = 0
KCH1 180158Z 12006KT 17/00 A2992 RMK A01 T01710002  RH  032%=      5-min Rain = 0
KCH1 180159Z 12006KT 17/00 A2992 RMK A01 T01700002  RH  032%=      5-min Rain = 0
KCH1 180200Z 12006KT 17/00 A2992 RMK A01 T01700001  RH  032%=      5-min Rain = 0
KCH1 180201Z 12006KT 17/00 A2992 RMK A01 T01700001  RH  032%=      5-min Rain = 0
KCH1 180202Z 12006KT 17/00 A2992 RMK A01 T01690001  RH  032%=      5-min Rain = 0
KCH1 180203Z 12006KT 17/00 A2992 RMK A01 T01690000  RH  032%=      5-min Rain = 0
KCH1 180204Z 12006KT 17/00 A2992 RMK A01 T01680000  RH  032%=      5-min Rain = 0
KCH1 180205Z 12006KT 17/00 A2992 RMK A01 T01670000  RH  032%=      5-min Rain = 0
KCH1 180206Z 12005KT 17/M00 A2992 RMK A01 T01671001  RH  032%=      5-min Rain = 0
KCH1 180207Z 12007KT 17/M00 A2992 RMK A01 T01661001  RH  032%=      5-min Rain = 0
KCH1 180208Z 12006KT 17/M00 A2992 RMK A01 T01661002  RH  032%=      5-min Rain = 0
KCH1 180209Z 13006KT 17/M00 A2992 RMK A01 T01661003  RH  032%=      5-min Rain = 0
KCH1 180210Z 12007KT 17/M01 A2992 RMK A01 T01671005  RH  031%=      5-min Rain = 0
KCH1 180211Z 12004KT 17/M00 A2992 RMK A01 T01681004  RH  031%=      5-min Rain = 0
KCH1 180212Z 11006KT 17/M00 A2992 RMK A01 T01671003  RH  031%=      5-min Rain = 0
KCH1 180213Z 12006KT 17/M00 A2992 RMK A01 T01671004  RH  031%=      5-min Rain = 0
KCH1 180214Z 13006KT 17/M00 A2992 RMK A01 T01671004  RH  031%=      5-min Rain = 0
KCH1 180215Z 13005KT 17/M00 A2992 RMK A01 T01671004  RH  031%=      5-min Rain = 0
KCH1 180216Z 12005KT 17/M00 A2992 RMK A01 T01661004  RH  031%=      5-min Rain = 0
KCH1 180217Z 12006KT 17/M00 A2992 RMK A01 T01661004  RH  031%=      5-min Rain = 0
KCH1 180218Z 13004KT 17/M00 A2992 RMK A01 T01661004  RH  032%=      5-min Rain = 0
KCH1 180219Z 12005KT 17/M00 A2992 RMK A01 T01651004  RH  032%=      5-min Rain = 0
KCH1 180220Z 12006KT 17/M00 A2992 RMK A01 T01651003  RH  032%=      5-min Rain = 0
KCH1 180221Z 11005KT 17/M00 A2992 RMK A01 T01651003  RH  032%=      5-min Rain = 0
KCH1 180222Z 12006KT 16/M00 A2992 RMK A01 T01641003  RH  032%=      5-min Rain = 0
KCH1 180223Z 12005KT 16/M00 A2992 RMK A01 T01641003  RH  032%=      5-min Rain = 0
KCH1 180224Z 12005KT 16/M00 A2992 RMK A01 T01641002  RH  032%=      5-min Rain = 0
KCH1 180225Z 12005KT 16/M00 A2992 RMK A01 T01631003  RH  032%=      5-min Rain = 0
KCH1 180226Z 12006KT 16/M00 A2992 RMK A01 T01631002  RH  033%=      5-min Rain = 0
KCH1 180227Z 12006KT 16/M00 A2992 RMK A01 T01621002  RH  033%=      5-min Rain = 0
KCH1 180228Z 13005KT 16/M00 A2992 RMK A01 T01621002  RH  033%=      5-min Rain = 0
KCH1 180229Z 12005KT 16/M00 A2992 RMK A01 T01621001  RH  033%=      5-min Rain = 0
KCH1 180230Z 12005KT 16/M00 A2992 RMK A01 T01621001  RH  033%=      5-min Rain = 0
KCH1 180231Z 12005KT 16/M00 A2992 RMK A01 T01611001  RH  033%=      5-min Rain = 0
KCH1 180232Z 12006KT 16/00 A2992 RMK A01 T016000-0  RH  033%=      5-min Rain = 0
KCH1 180233Z 13006KT 16/00 A2992 RMK A01 T016000-0  RH  034%=      5-min Rain = 0
KCH1 180234Z 13004KT 16/00 A2992 RMK A01 T016000-0  RH  034%=      5-min Rain = 0
KCH1 180235Z 13005KT 16/00 A2992 RMK A01 T01600000  RH  034%=      5-min Rain = 0
KCH1 180236Z 13004KT 16/00 A2992 RMK A01 T01590001  RH  034%=      5-min Rain = 0
KCH1 180237Z 13004KT 16/00 A2992 RMK A01 T01580001  RH  034%=      5-min Rain = 0
KCH1 180238Z 14004KT 16/00 A2992 RMK A01 T01580001  RH  034%=      5-min Rain = 0
KCH1 180239Z 13005KT 16/00 A2992 RMK A01 T01570001  RH  035%=      5-min Rain = 0
KCH1 180240Z 13005KT 16/00 A2992 RMK A01 T01570002  RH  035%=      5-min Rain = 0
KCH1 180241Z 13006KT 16/00 A2992 RMK A01 T01570001  RH  035%=      5-min Rain = 0
KCH1 180242Z 12004KT 16/00 A2992 RMK A01 T01570001  RH  035%=      5-min Rain = 0
KCH1 180243Z 13004KT 16/00 A2992 RMK A01 T01570002  RH  035%=      5-min Rain = 0
KCH1 180244Z 13005KT 16/00 A2992 RMK A01 T01560002  RH  035%=      5-min Rain = 0
KCH1 180245Z 12005KT 16/00 A2992 RMK A01 T01550002  RH  035%=      5-min Rain = 0
KCH1 180246Z 12005KT 15/00 A2992 RMK A01 T01540003  RH  036%=      5-min Rain = 0
KCH1 180247Z 13004KT 15/00 A2992 RMK A01 T01540003  RH  036%=      5-min Rain = 0
KCH1 180248Z 13003KT 15/00 A2992 RMK A01 T01540003  RH  036%=      5-min Rain = 0
KCH1 180249Z 13004KT 15/00 A2992 RMK A01 T01530003  RH  036%=      5-min Rain = 0
KCH1 180250Z 13003KT 15/00 A2992 RMK A01 T01530003  RH  036%=      5-min Rain = 0
KCH1 180251Z 13004KT 15/00 A2992 RMK A01 T01520003  RH  036%=      5-min Rain = 0
KCH1 180252Z 13006KT 15/00 A2992 RMK A01 T01520003  RH  036%=      5-min Rain = 0
KCH1 180253Z 13004KT 15/00 A2992 RMK A01 T01520004  RH  036%=      5-min Rain = 0
KCH1 180254Z 14005KT 15/00 A2992 RMK A01 T01510004  RH  036%=      5-min Rain = 0
KCH1 180255Z 14005KT 15/00 A2992 RMK A01 T01510003  RH  036%=      5-min Rain = 0
KCH1 180256Z 13005KT 15/00 A2992 RMK A01 T01510004  RH  036%=      5-min Rain = 0
KCH1 180257Z 13005KT 15/00 A2992 RMK A01 T01520004  RH  036%=      5-min Rain = 0
KCH1 180258Z 13005KT 15/00 A2992 RMK A01 T01510004  RH  037%=      5-min Rain = 0
KCH1 180259Z 13004KT 15/00 A2992 RMK A01 T01510004  RH  037%=      5-min Rain = 0
KCH1 180300Z 13004KT 15/00 A2992 RMK A01 T01500004  RH  037%=      5-min Rain = 0
KCH1 180301Z 13005KT 15/00 A2992 RMK A01 T01500004  RH  037%=      5-min Rain = 0
KCH1 180302Z 13005KT 15/00 A2992 RMK A01 T01500004  RH  037%=      5-min Rain = 0
KCH1 180303Z 13005KT 15/00 A2992 RMK A01 T01490004  RH  037%=      5-min Rain = 0
KCH1 180304Z 13005KT 15/00 A2992 RMK A01 T01490004  RH  037%=      5-min Rain = 0
KCH1 180305Z 13004KT 15/01 A2992 RMK A01 T01490005  RH  037%=      5-min Rain = 0
KCH1 180306Z 13004KT 15/00 A2992 RMK A01 T01480004  RH  037%=      5-min Rain = 0
KCH1 180307Z 13005KT 15/00 A2992 RMK A01 T01480004  RH  037%=      5-min Rain = 0
KCH1 180308Z 13006KT 15/00 A2992 RMK A01 T01470004  RH  038%=      5-min Rain = 0
KCH1 180309Z 13005KT 15/00 A2992 RMK A01 T01470004  RH  037%=      5-min Rain = 0
KCH1 180310Z 13004KT 15/00 A2992 RMK A01 T01480004  RH  038%=      5-min Rain = 0
KCH1 180311Z 14004KT 15/00 A2992 RMK A01 T01470004  RH  038%=      5-min Rain = 0
KCH1 180312Z 14004KT 15/00 A2992 RMK A01 T01470004  RH  038%=      5-min Rain = 0
KCH1 180313Z 14004KT 15/00 A2992 RMK A01 T01460004  RH  038%=      5-min Rain = 0
KCH1 180314Z 14003KT 15/00 A2992 RMK A01 T01460004  RH  038%=      5-min Rain = 0
KCH1 180315Z 14003KT 15/00 A2992 RMK A01 T01450004  RH  038%=      5-min Rain = 0
KCH1 180316Z 14004KT 15/00 A2992 RMK A01 T01450004  RH  038%=      5-min Rain = 0
KCH1 180317Z 14004KT 15/00 A2992 RMK A01 T01450004  RH  038%=      5-min Rain = 0
KCH1 180318Z 14004KT 15/00 A2992 RMK A01 T01450004  RH  038%=      5-min Rain = 0
KCH1 180319Z 13005KT 14/00 A2992 RMK A01 T01440004  RH  038%=      5-min Rain = 0
KCH1 180320Z 13004KT 14/00 A2992 RMK A01 T01440004  RH  038%=      5-min Rain = 0
KCH1 180321Z 13003KT 14/00 A2992 RMK A01 T01440004  RH  038%=      5-min Rain = 0
KCH1 180322Z 13004KT 14/00 A2992 RMK A01 T01440004  RH  038%=      5-min Rain = 0
KCH1 180323Z 14004KT 14/00 A2992 RMK A01 T01440004  RH  038%=      5-min Rain = 0
KCH1 180324Z 13004KT 14/00 A2992 RMK A01 T01440004  RH  038%=      5-min Rain = 0
KCH1 180325Z 13004KT 14/00 A2992 RMK A01 T01440004  RH  038%=      5-min Rain = 0
KCH1 180326Z 13003KT 14/00 A2992 RMK A01 T01440004  RH  039%=      5-min Rain = 0
KCH1 180327Z 13004KT 14/00 A2992 RMK A01 T01430004  RH  039%=      5-min Rain = 0
KCH1 180328Z 12003KT 14/00 A2992 RMK A01 T01430004  RH  039%=      5-min Rain = 0
KCH1 180329Z 13004KT 14/00 A2992 RMK A01 T01430004  RH  039%=      5-min Rain = 0
KCH1 180330Z 12004KT 14/00 A2992 RMK A01 T01420004  RH  039%=      5-min Rain = 0
KCH1 180331Z 13003KT 14/00 A2992 RMK A01 T01420004  RH  039%=      5-min Rain = 0
KCH1 180332Z 13003KT 14/00 A2992 RMK A01 T01420004  RH  039%=      5-min Rain = 0
KCH1 180333Z 13003KT 14/00 A2992 RMK A01 T01420004  RH  039%=      5-min Rain = 0
KCH1 180334Z 13002KT 14/00 A2992 RMK A01 T01420004  RH  039%=      5-min Rain = 0
KCH1 180335Z 13002KT 14/00 A2992 RMK A01 T01420004  RH  039%=      5-min Rain = 0
KCH1 180336Z 13002KT 14/00 A2992 RMK A01 T01410004  RH  039%=      5-min Rain = 0
KCH1 180337Z 13002KT 14/00 A2992 RMK A01 T01410004  RH  039%=      5-min Rain = 0
KCH1 180338Z 13003KT 14/00 A2992 RMK A01 T01400004  RH  039%=      5-min Rain = 0
KCH1 180339Z 13003KT 14/00 A2992 RMK A01 T01400004  RH  039%=      5-min Rain = 0
KCH1 180340Z 13003KT 14/01 A2992 RMK A01 T01400005  RH  040%=      5-min Rain = 0
KCH1 180341Z 12003KT 14/00 A2992 RMK A01 T01390004  RH  040%=      5-min Rain = 0
KCH1 180342Z 13003KT 14/00 A2992 RMK A01 T01390004  RH  040%=      5-min Rain = 0
KCH1 180343Z 13003KT 14/01 A2992 RMK A01 T01390005  RH  040%=      5-min Rain = 0
KCH1 180344Z 13003KT 14/00 A2992 RMK A01 T01390004  RH  040%=      5-min Rain = 0
KCH1 180345Z 13002KT 14/00 A2992 RMK A01 T01390004  RH  040%=      5-min Rain = 0
KCH1 180346Z 14003KT 14/00 A2993 RMK A01 T01390004  RH  040%=      5-min Rain = 0
KCH1 180347Z 13002KT 14/01 A2993 RMK A01 T01380005  RH  040%=      5-min Rain = 0
KCH1 180348Z 13002KT 14/00 A2993 RMK A01 T01380004  RH  040%=      5-min Rain = 0
KCH1 180349Z 14002KT 14/01 A2993 RMK A01 T01380005  RH  040%=      5-min Rain = 0
KCH1 180350Z 14002KT 14/00 A2993 RMK A01 T01380004  RH  040%=      5-min Rain = 0
KCH1 180351Z 14002KT 14/01 A2993 RMK A01 T01380005  RH  040%=      5-min Rain = 0
KCH1 180352Z 15004KT 14/01 A2993 RMK A01 T01380005  RH  040%=      5-min Rain = 0
KCH1 180353Z 15002KT 14/01 A2993 RMK A01 T01380005  RH  040%=      5-min Rain = 0
KCH1 180354Z 14003KT 14/01 A2993 RMK A01 T01370005  RH  040%=      5-min Rain = 0
KCH1 180355Z 14003KT 14/01 A2993 RMK A01 T01370005  RH  040%=      5-min Rain = 0
KCH1 180356Z 14003KT 14/01 A2993 RMK A01 T01370005  RH  040%=      5-min Rain = 0
KCH1 180357Z 14003KT 14/01 A2993 RMK A01 T01370005  RH  040%=      5-min Rain = 0
KCH1 180358Z 14003KT 14/01 A2993 RMK A01 T01370005  RH  041%=      5-min Rain = 0
KCH1 180359Z 14003KT 14/01 A2993 RMK A01 T01370005  RH  041%=      5-min Rain = 0
KCH1 180400Z 13002KT 14/01 A2993 RMK A01 T01370006  RH  041%=      5-min Rain = 0
KCH1 180401Z 14003KT 14/01 A2993 RMK A01 T01360006  RH  041%=      5-min Rain = 0
KCH1 180402Z 13004KT 14/01 A2993 RMK A01 T01360006  RH  041%=      5-min Rain = 0
KCH1 180403Z 14004KT 14/01 A2993 RMK A01 T01360007  RH  041%=      5-min Rain = 0
KCH1 180404Z 13004KT 14/01 A2993 RMK A01 T01360007  RH  041%=      5-min Rain = 0
KCH1 180405Z 13004KT 14/01 A2993 RMK A01 T01350007  RH  042%=      5-min Rain = 0
KCH1 180406Z 13004KT 13/01 A2993 RMK A01 T01340008  RH  042%=      5-min Rain = 0
KCH1 180407Z 13005KT 13/01 A2993 RMK A01 T01340008  RH  042%=      5-min Rain = 0
KCH1 180408Z 13004KT 13/01 A2993 RMK A01 T01330009  RH  043%=      5-min Rain = 0
KCH1 180409Z 13004KT 13/01 A2993 RMK A01 T01320010  RH  043%=      5-min Rain = 0
KCH1 180410Z 13005KT 13/01 A2993 RMK A01 T01300009  RH  044%=      5-min Rain = 0
KCH1 180411Z 13004KT 13/01 A2993 RMK A01 T01290010  RH  044%=      5-min Rain = 0
KCH1 180412Z 13004KT 13/01 A2993 RMK A01 T01290010  RH  044%=      5-min Rain = 0
KCH1 180413Z 13004KT 13/01 A2993 RMK A01 T01280010  RH  044%=      5-min Rain = 0
KCH1 180414Z 14004KT 13/01 A2993 RMK A01 T01280010  RH  044%=      5-min Rain = 0
KCH1 180415Z 13005KT 13/01 A2993 RMK A01 T01290010  RH  044%=      5-min Rain = 0
KCH1 180416Z 14003KT 13/01 A2993 RMK A01 T01290010  RH  044%=      5-min Rain = 0
KCH1 180417Z 14003KT 13/01 A2993 RMK A01 T01300010  RH  044%=      5-min Rain = 0
KCH1 180418Z 14003KT 13/01 A2993 RMK A01 T01300010  RH  044%=      5-min Rain = 0
KCH1 180419Z 14003KT 13/01 A2993 RMK A01 T01300011  RH  044%=      5-min Rain = 0
KCH1 180420Z 15002KT 13/01 A2993 RMK A01 T01300011  RH  044%=      5-min Rain = 0
KCH1 180421Z 15002KT 13/01 A2993 RMK A01 T01300010  RH  044%=      5-min Rain = 0
KCH1 180422Z 15001KT 13/01 A2993 RMK A01 T01300011  RH  044%=      5-min Rain = 0
KCH1 180423Z 15002KT 13/01 A2993 RMK A01 T01300011  RH  044%=      5-min Rain = 0
KCH1 180424Z 15002KT 13/01 A2993 RMK A01 T01300011  RH  044%=      5-min Rain = 0
KCH1 180425Z 15002KT 13/01 A2994 RMK A01 T01300011  RH  044%=      5-min Rain = 0
KCH1 180426Z 15001KT 13/01 A2994 RMK A01 T01300011  RH  044%=      5-min Rain = 0
KCH1 180427Z 15001KT 13/01 A2994 RMK A01 T01290011  RH  044%=      5-min Rain = 0
KCH1 180428Z 15002KT 13/01 A2994 RMK A01 T01290011  RH  044%=      5-min Rain = 0
KCH1 180429Z 15002KT 13/01 A2993 RMK A01 T01290011  RH  045%=      5-min Rain = 0
KCH1 180430Z 15001KT 13/01 A2993 RMK A01 T01290011  RH  045%=      5-min Rain = 0
KCH1 180431Z 14001KT 13/01 A2993 RMK A01 T01290011  RH  045%=      5-min Rain = 0
KCH1 180432Z 13001KT 13/01 A2993 RMK A01 T01290012  RH  045%=      5-min Rain = 0
KCH1 180433Z 12002KT 13/01 A2993 RMK A01 T01290012  RH  045%=      5-min Rain = 0
KCH1 180434Z 12002KT 13/01 A2993 RMK A01 T01290012  RH  045%=      5-min Rain = 0
KCH1 180435Z 11002KT 13/01 A2993 RMK A01 T01290011  RH  045%=      5-min Rain = 0
KCH1 180436Z 11002KT 13/01 A2993 RMK A01 T01280011  RH  045%=      5-min Rain = 0
KCH1 180437Z 11002KT 13/01 A2993 RMK A01 T01270010  RH  045%=      5-min Rain = 0
KCH1 180438Z 11002KT 13/01 A2993 RMK A01 T01260011  RH  045%=      5-min Rain = 0
KCH1 180439Z 10002KT 13/01 A2993 RMK A01 T01250011  RH  046%=      5-min Rain = 0
KCH1 180440Z 09002KT 12/01 A2993 RMK A01 T01240011  RH  046%=      5-min Rain = 0
KCH1 180441Z 10002KT 12/01 A2993 RMK A01 T01230011  RH  046%=      5-min Rain = 0
KCH1 180442Z 10002KT 12/01 A2993 RMK A01 T01220011  RH  047%=      5-min Rain = 0
KCH1 180443Z 10003KT 12/01 A2993 RMK A01 T01200011  RH  047%=      5-min Rain = 0
KCH1 180444Z 10003KT 12/01 A2993 RMK A01 T01190012  RH  048%=      5-min Rain = 0
KCH1 180445Z 10003KT 12/01 A2993 RMK A01 T01170012  RH  049%=      5-min Rain = 0
KCH1 180446Z 10003KT 12/01 A2993 RMK A01 T01150013  RH  049%=      5-min Rain = 0
KCH1 180447Z 09003KT 11/01 A2993 RMK A01 T01130013  RH  050%=      5-min Rain = 0
KCH1 180448Z 10004KT 11/01 A2993 RMK A01 T01110014  RH  051%=      5-min Rain = 0
KCH1 180449Z 09004KT 11/01 A2993 RMK A01 T01110014  RH  051%=      5-min Rain = 0
KCH1 180450Z 10004KT 11/01 A2993 RMK A01 T01110014  RH  051%=      5-min Rain = 0
KCH1 180451Z 09004KT 11/02 A2993 RMK A01 T01100015  RH  052%=      5-min Rain = 0
KCH1 180452Z 09004KT 11/02 A2993 RMK A01 T01100015  RH  052%=      5-min Rain = 0
KCH1 180453Z 09003KT 11/02 A2993 RMK A01 T01090015  RH  052%=      5-min Rain = 0
KCH1 180454Z 09003KT 11/02 A2993 RMK A01 T01090015  RH  052%=      5-min Rain = 0
KCH1 180455Z 09003KT 11/02 A2993 RMK A01 T01090015  RH  052%=      5-min Rain = 0
KCH1 180456Z 09003KT 11/02 A2993 RMK A01 T01090015  RH  052%=      5-min Rain = 0
KCH1 180457Z 08003KT 11/02 A2993 RMK A01 T01090015  RH  052%=      5-min Rain = 0
KCH1 180458Z 09003KT 11/02 A2993 RMK A01 T01100015  RH  052%=      5-min Rain = 0
KCH1 180459Z 08003KT 11/02 A2992 RMK A01 T01120016  RH  052%=      5-min Rain = 0

Page generated in 0.0844 seconds.